Observation data for Guadalupe Mtns Park on 06/20/2019      Previous  Date  Next       Current Mesonet Observations  Soil Data  Daily Summary Page  Observations in Plain Language
KGU1 200500Z 27013KT 26/M04 A3009 RMK A01 T02631044  RH  013%=      5-min Rain = 0
KGU1 200501Z 27013KT 26/M04 A3008 RMK A01 T02641044  RH  013%=      5-min Rain = 0
KGU1 200502Z 27012KT 27/M04 A3008 RMK A01 T02651044  RH  013%=      5-min Rain = 0
KGU1 200503Z 26012KT 27/M04 A3008 RMK A01 T02651044  RH  013%=      5-min Rain = 0
KGU1 200504Z 26013KT 27/M04 A3008 RMK A01 T02651044  RH  013%=      5-min Rain = 0
KGU1 200505Z 27013KT 27/M04 A3008 RMK A01 T02661044  RH  013%=      5-min Rain = 0
KGU1 200506Z 26011KT 27/M04 A3008 RMK A01 T02671043  RH  013%=      5-min Rain = 0
KGU1 200507Z 26014KT 27/M04 A3008 RMK A01 T02661043  RH  013%=      5-min Rain = 0
KGU1 200508Z 27013KT 27/M04 A3008 RMK A01 T02681044  RH  013%=      5-min Rain = 0
KGU1 200509Z 27013KT 27/M04 A3008 RMK A01 T02691043  RH  013%=      5-min Rain = 0
KGU1 200510Z 27011KT 27/M04 A3008 RMK A01 T02671043  RH  013%=      5-min Rain = 0
KGU1 200511Z 27014KT 27/M04 A3008 RMK A01 T02671044  RH  013%=      5-min Rain = 0
KGU1 200512Z 26013KT 27/M04 A3008 RMK A01 T02681044  RH  013%=      5-min Rain = 0
KGU1 200513Z 27012KT 27/M04 A3008 RMK A01 T02681043  RH  013%=      5-min Rain = 0
KGU1 200514Z 26013KT 27/M04 A3008 RMK A01 T02651044  RH  013%=      5-min Rain = 0
KGU1 200515Z 27013KT 27/M04 A3008 RMK A01 T02651044  RH  013%=      5-min Rain = 0
KGU1 200516Z 26013KT 26/M05 A3008 RMK A01 T02641045  RH  013%=      5-min Rain = 0
KGU1 200517Z 27013KT 27/M05 A3008 RMK A01 T02651049  RH  012%=      5-min Rain = 0
KGU1 200518Z 27013KT 27/M05 A3008 RMK A01 T02661048  RH  012%=      5-min Rain = 0
KGU1 200519Z 27013KT 27/M05 A3008 RMK A01 T02651047  RH  012%=      5-min Rain = 0
KGU1 200520Z 27012KT 27/M05 A3008 RMK A01 T02651048  RH  012%=      5-min Rain = 0
KGU1 200521Z 26011G16KT 27/M05 A3008 RMK A01 T02651048  RH  012%=      5-min Rain = 0
KGU1 200522Z 28013KT 26/M05 A3008 RMK A01 T02641048  RH  012%=      5-min Rain = 0
KGU1 200523Z 27013KT 27/M05 A3008 RMK A01 T02651049  RH  012%=      5-min Rain = 0
KGU1 200524Z 28014KT 27/M05 A3008 RMK A01 T02651050  RH  012%=      5-min Rain = 0
KGU1 200525Z 27015KT 27/M05 A3008 RMK A01 T02661049  RH  012%=      5-min Rain = 0
KGU1 200526Z 27015KT 27/M05 A3008 RMK A01 T02661049  RH  012%=      5-min Rain = 0
KGU1 200527Z 26011KT 27/M05 A3008 RMK A01 T02671049  RH  012%=      5-min Rain = 0
KGU1 200528Z 27014KT 27/M05 A3008 RMK A01 T02661050  RH  012%=      5-min Rain = 0
KGU1 200529Z 27013KT 27/M05 A3008 RMK A01 T02671049  RH  012%=      5-min Rain = 0
KGU1 200530Z 27012KT 27/M05 A3008 RMK A01 T02661048  RH  012%=      5-min Rain = 0
KGU1 200531Z 28014KT 27/M05 A3008 RMK A01 T02651048  RH  012%=      5-min Rain = 0
KGU1 200532Z 27014G19KT 27/M05 A3008 RMK A01 T02651047  RH  012%=      5-min Rain = 0
KGU1 200533Z 27014G19KT 27/M05 A3008 RMK A01 T02651047  RH  012%=      5-min Rain = 0
KGU1 200534Z 27013KT 27/M05 A3008 RMK A01 T02661046  RH  013%=      5-min Rain = 0
KGU1 200535Z 27013KT 27/M05 A3008 RMK A01 T02651045  RH  013%=      5-min Rain = 0
KGU1 200536Z 27017KT 27/M05 A3008 RMK A01 T02661047  RH  012%=      5-min Rain = 0
KGU1 200537Z 28015KT 27/M05 A3008 RMK A01 T02671048  RH  012%=      5-min Rain = 0
KGU1 200538Z 28013KT 27/M05 A3008 RMK A01 T02681047  RH  012%=      5-min Rain = 0
KGU1 200539Z 28013KT 27/M05 A3008 RMK A01 T02671047  RH  012%=      5-min Rain = 0
KGU1 200540Z 27014KT 27/M05 A3008 RMK A01 T02661047  RH  012%=      5-min Rain = 0
KGU1 200541Z 27015KT 27/M05 A3008 RMK A01 T02661048  RH  012%=      5-min Rain = 0
KGU1 200542Z 28014KT 27/M05 A3008 RMK A01 T02671048  RH  012%=      5-min Rain = 0
KGU1 200543Z 28015KT 27/M05 A3008 RMK A01 T02671048  RH  012%=      5-min Rain = 0
KGU1 200544Z 28013KT 27/M05 A3008 RMK A01 T02671048  RH  012%=      5-min Rain = 0
KGU1 200545Z 27013KT 27/M05 A3008 RMK A01 T02661047  RH  012%=      5-min Rain = 0
KGU1 200546Z 28013KT 27/M05 A3008 RMK A01 T02651046  RH  013%=      5-min Rain = 0
KGU1 200547Z 28013KT 26/M05 A3008 RMK A01 T02631047  RH  013%=      5-min Rain = 0
KGU1 200548Z 28014KT 26/M05 A3008 RMK A01 T02641048  RH  013%=      5-min Rain = 0
KGU1 200549Z 29013KT 26/M05 A3008 RMK A01 T02641048  RH  012%=      5-min Rain = 0
KGU1 200550Z 28012KT 26/M05 A3008 RMK A01 T02631046  RH  013%=      5-min Rain = 0
KGU1 200551Z 28012KT 26/M05 A3008 RMK A01 T02621047  RH  013%=      5-min Rain = 0
KGU1 200552Z 28012KT 26/M05 A3008 RMK A01 T02611046  RH  013%=      5-min Rain = 0
KGU1 200553Z 28012KT 26/M05 A3008 RMK A01 T02611046  RH  013%=      5-min Rain = 0
KGU1 200554Z 28013KT 26/M05 A3008 RMK A01 T02611047  RH  013%=      5-min Rain = 0
KGU1 200555Z 28013KT 26/M05 A3008 RMK A01 T02621048  RH  013%=      5-min Rain = 0
KGU1 200556Z 28014KT 26/M05 A3008 RMK A01 T02621048  RH  013%=      5-min Rain = 0
KGU1 200557Z 28014KT 26/M05 A3008 RMK A01 T02631048  RH  013%=      5-min Rain = 0
KGU1 200558Z 28015KT 26/M05 A3008 RMK A01 T02631048  RH  013%=      5-min Rain = 0
KGU1 200559Z 28014KT 26/M05 A3008 RMK A01 T02641049  RH  012%=      5-min Rain = 0
KGU1 200600Z 28013KT 26/M05 A3008 RMK A01 T02641048  RH  013%=      5-min Rain = 0
KGU1 200601Z 29012KT 26/M05 A3008 RMK A01 T02621046  RH  013%=      5-min Rain = 0
KGU1 200602Z 28013KT 26/M05 A3008 RMK A01 T02611047  RH  013%=      5-min Rain = 0
KGU1 200603Z 29014KT 26/M05 A3008 RMK A01 T02611048  RH  013%=      5-min Rain = 0
KGU1 200604Z 29015KT 26/M05 A3008 RMK A01 T02611049  RH  013%=      5-min Rain = 0
KGU1 200605Z 28014KT 26/M05 A3008 RMK A01 T02631050  RH  012%=      5-min Rain = 0
KGU1 200606Z 29013KT 26/M05 A3008 RMK A01 T02631049  RH  012%=      5-min Rain = 0
KGU1 200607Z 29013KT 26/M05 A3008 RMK A01 T02621048  RH  013%=      5-min Rain = 0
KGU1 200608Z 30014KT 26/M05 A3008 RMK A01 T02601048  RH  013%=      5-min Rain = 0
KGU1 200609Z 29011KT 26/M05 A3008 RMK A01 T02601048  RH  013%=      5-min Rain = 0
KGU1 200610Z 29012KT 26/M05 A3008 RMK A01 T02591048  RH  013%=      5-min Rain = 0
KGU1 200611Z 29013KT 26/M05 A3008 RMK A01 T02571047  RH  013%=      5-min Rain = 0
KGU1 200612Z 29015KT 26/M05 A3008 RMK A01 T02571049  RH  013%=      5-min Rain = 0
KGU1 200613Z 30014KT 26/M05 A3008 RMK A01 T02581049  RH  013%=      5-min Rain = 0
KGU1 200614Z 29014KT 26/M05 A3008 RMK A01 T02581049  RH  013%=      5-min Rain = 0
KGU1 200615Z 29014KT 26/M05 A3008 RMK A01 T02571049  RH  013%=      5-min Rain = 0
KGU1 200616Z 29013KT 26/M05 A3008 RMK A01 T02571050  RH  013%=      5-min Rain = 0
KGU1 200617Z 29013KT 26/M05 A3008 RMK A01 T02571048  RH  013%=      5-min Rain = 0
KGU1 200618Z 29014KT 26/M05 A3008 RMK A01 T02561049  RH  013%=      5-min Rain = 0
KGU1 200619Z 29013KT 26/M05 A3008 RMK A01 T02561050  RH  013%=      5-min Rain = 0
KGU1 200620Z 29013KT 26/M05 A3007 RMK A01 T02571051  RH  013%=      5-min Rain = 0
KGU1 200621Z 29014KT 26/M05 A3007 RMK A01 T02561049  RH  013%=      5-min Rain = 0
KGU1 200622Z 29012KT 26/M05 A3007 RMK A01 T02551050  RH  013%=      5-min Rain = 0
KGU1 200623Z 29013KT 25/M05 A3007 RMK A01 T02541050  RH  013%=      5-min Rain = 0
KGU1 200624Z 29014KT 25/M05 A3007 RMK A01 T02541051  RH  013%=      5-min Rain = 0
KGU1 200625Z 29014KT 26/M05 A3007 RMK A01 T02551052  RH  013%=      5-min Rain = 0
KGU1 200626Z 29014KT 26/M05 A3007 RMK A01 T02551052  RH  013%=      5-min Rain = 0
KGU1 200627Z 29014KT 26/M05 A3007 RMK A01 T02551052  RH  013%=      5-min Rain = 0
KGU1 200628Z 29014KT 26/M05 A3007 RMK A01 T02551053  RH  013%=      5-min Rain = 0
KGU1 200629Z 29015KT 26/M05 A3007 RMK A01 T02561053  RH  013%=      5-min Rain = 0
KGU1 200630Z 29015KT 26/M05 A3007 RMK A01 T02561054  RH  013%=      5-min Rain = 0
KGU1 200631Z 29013KT 26/M05 A3007 RMK A01 T02561053  RH  013%=      5-min Rain = 0
KGU1 200632Z 29014KT 26/M05 A3007 RMK A01 T02551053  RH  013%=      5-min Rain = 0
KGU1 200633Z 29014KT 25/M05 A3007 RMK A01 T02541054  RH  013%=      5-min Rain = 0
KGU1 200634Z 29014KT 25/M05 A3007 RMK A01 T02541054  RH  013%=      5-min Rain = 0
KGU1 200635Z 29013G18KT 25/M05 A3007 RMK A01 T02541054  RH  013%=      5-min Rain = 0
KGU1 200636Z 30013KT 25/M05 A3007 RMK A01 T02531054  RH  013%=      5-min Rain = 0
KGU1 200637Z 30014KT 25/M06 A3007 RMK A01 T02521056  RH  013%=      5-min Rain = 0
KGU1 200638Z 29013KT 25/M06 A3007 RMK A01 T02521058  RH  012%=      5-min Rain = 0
KGU1 200639Z 29012KT 25/M06 A3007 RMK A01 T02511057  RH  013%=      5-min Rain = 0
KGU1 200640Z 30013KT 25/M06 A3007 RMK A01 T02501057  RH  013%=      5-min Rain = 0
KGU1 200641Z 29012KT 25/M06 A3007 RMK A01 T02501059  RH  012%=      5-min Rain = 0
KGU1 200642Z 29017G23KT 25/M06 A3007 RMK A01 T02501061  RH  012%=      5-min Rain = 0
KGU1 200643Z 29017KT 26/M07 A3007 RMK A01 T02551067  RH  011%=      5-min Rain = 0
KGU1 200644Z 29015KT 26/M07 A3007 RMK A01 T02571066  RH  011%=      5-min Rain = 0
KGU1 200645Z 29013KT 26/M07 A3007 RMK A01 T02581065  RH  011%=      5-min Rain = 0
KGU1 200646Z 29015KT 26/M07 A3007 RMK A01 T02561065  RH  011%=      5-min Rain = 0
KGU1 200647Z 30015KT 26/M07 A3007 RMK A01 T02561066  RH  011%=      5-min Rain = 0
KGU1 200648Z 29015KT 25/M07 A3007 RMK A01 T02541068  RH  011%=      5-min Rain = 0
KGU1 200649Z 30015KT 26/M07 A3007 RMK A01 T02551069  RH  011%=      5-min Rain = 0
KGU1 200650Z 30014KT 26/M07 A3007 RMK A01 T02551068  RH  011%=      5-min Rain = 0
KGU1 200651Z 29014KT 25/M07 A3007 RMK A01 T02541070  RH  011%=      5-min Rain = 0
KGU1 200652Z 29013KT 25/M07 A3007 RMK A01 T02541071  RH  011%=      5-min Rain = 0
KGU1 200653Z 30013KT 25/M07 A3007 RMK A01 T02541069  RH  011%=      5-min Rain = 0
KGU1 200654Z 29013KT 25/M07 A3007 RMK A01 T02531069  RH  011%=      5-min Rain = 0
KGU1 200655Z 30013KT 25/M07 A3007 RMK A01 T02521069  RH  011%=      5-min Rain = 0
KGU1 200656Z 30014KT 25/M07 A3006 RMK A01 T02521070  RH  011%=      5-min Rain = 0
KGU1 200657Z 30014KT 25/M07 A3006 RMK A01 T02521071  RH  011%=      5-min Rain = 0
KGU1 200658Z 29016KT 25/M07 A3006 RMK A01 T02541073  RH  011%=      5-min Rain = 0
KGU1 200659Z 30016KT 26/M07 A3006 RMK A01 T02561074  RH  011%=      5-min Rain = 0
KGU1 200700Z 30016KT 26/M07 A3006 RMK A01 T02561072  RH  011%=      5-min Rain = 0
KGU1 200701Z 30014KT 26/M07 A3006 RMK A01 T02561072  RH  011%=      5-min Rain = 0
KGU1 200702Z 29013KT 26/M07 A3006 RMK A01 T02551071  RH  011%=      5-min Rain = 0
KGU1 200703Z 29015KT 26/M07 A3006 RMK A01 T02551072  RH  011%=      5-min Rain = 0
KGU1 200704Z 29017KT 26/M07 A3006 RMK A01 T02551073  RH  011%=      5-min Rain = 0
KGU1 200705Z 29015KT 26/M07 A3006 RMK A01 T02571073  RH  011%=      5-min Rain = 0
KGU1 200706Z 29014KT 26/M07 A3006 RMK A01 T02561073  RH  011%=      5-min Rain = 0
KGU1 200707Z 30012KT 26/M07 A3006 RMK A01 T02551072  RH  011%=      5-min Rain = 0
KGU1 200708Z 29012KT 25/M07 A3006 RMK A01 T02541072  RH  011%=      5-min Rain = 0
KGU1 200709Z 29015KT 25/M07 A3006 RMK A01 T02541073  RH  011%=      5-min Rain = 0
KGU1 200710Z 29012KT 26/M07 A3006 RMK A01 T02551073  RH  011%=      5-min Rain = 0
KGU1 200711Z 29012G17KT 25/M07 A3006 RMK A01 T02541072  RH  011%=      5-min Rain = 0
KGU1 200712Z 29016G21KT 26/M07 A3006 RMK A01 T02551074  RH  011%=      5-min Rain = 0
KGU1 200713Z 30016G21KT 26/M07 A3006 RMK A01 T02561073  RH  011%=      5-min Rain = 0
KGU1 200714Z 30013KT 26/M07 A3006 RMK A01 T02571072  RH  011%=      5-min Rain = 0
KGU1 200715Z 29014KT 26/M07 A3006 RMK A01 T02561070  RH  011%=      5-min Rain = 0
KGU1 200716Z 30013KT 26/M07 A3006 RMK A01 T02551070  RH  011%=      5-min Rain = 0
KGU1 200717Z 29013KT 25/M07 A3006 RMK A01 T02541069  RH  011%=      5-min Rain = 0
KGU1 200718Z 29013KT 25/M07 A3006 RMK A01 T02531070  RH  011%=      5-min Rain = 0
KGU1 200719Z 29013KT 25/M07 A3006 RMK A01 T02531071  RH  011%=      5-min Rain = 0
KGU1 200720Z 29013KT 25/M07 A3006 RMK A01 T02541071  RH  011%=      5-min Rain = 0
KGU1 200721Z 29013KT 25/M07 A3006 RMK A01 T02541070  RH  011%=      5-min Rain = 0
KGU1 200722Z 29014G20KT 25/M07 A3006 RMK A01 T02531069  RH  011%=      5-min Rain = 0
KGU1 200723Z 30017KT 25/M07 A3006 RMK A01 T02541073  RH  011%=      5-min Rain = 0
KGU1 200724Z 30014KT 26/M07 A3006 RMK A01 T02571071  RH  011%=      5-min Rain = 0
KGU1 200725Z 30012KT 26/M07 A3006 RMK A01 T02561069  RH  011%=      5-min Rain = 0
KGU1 200726Z 30016KT 25/M07 A3006 RMK A01 T02541070  RH  011%=      5-min Rain = 0
KGU1 200727Z 29014KT 26/M07 A3006 RMK A01 T02571073  RH  011%=      5-min Rain = 0
KGU1 200728Z 29014KT 26/M07 A3006 RMK A01 T02581072  RH  011%=      5-min Rain = 0
KGU1 200729Z 29013KT 26/M07 A3006 RMK A01 T02561071  RH  011%=      5-min Rain = 0
KGU1 200730Z 30016KT 26/M07 A3006 RMK A01 T02561072  RH  011%=      5-min Rain = 0
KGU1 200731Z 30013KT 26/M07 A3006 RMK A01 T02581073  RH  011%=      5-min Rain = 0
KGU1 200732Z 28014KT 26/M07 A3006 RMK A01 T02571072  RH  011%=      5-min Rain = 0
KGU1 200733Z 29018KT 26/M07 A3006 RMK A01 T02571073  RH  011%=      5-min Rain = 0
KGU1 200734Z 29017KT 26/M07 A3006 RMK A01 T02581073  RH  011%=      5-min Rain = 0
KGU1 200735Z 29017KT 26/M07 A3006 RMK A01 T02591073  RH  011%=      5-min Rain = 0
KGU1 200736Z 29016G21KT 26/M07 A3006 RMK A01 T02601073  RH  011%=      5-min Rain = 0
KGU1 200737Z 29017G22KT 26/M07 A3006 RMK A01 T02601073  RH  011%=      5-min Rain = 0
KGU1 200738Z 30016KT 26/M07 A3006 RMK A01 T02601073  RH  011%=      5-min Rain = 0
KGU1 200739Z 29014KT 26/M07 A3006 RMK A01 T02611074  RH  010%=      5-min Rain = 0
KGU1 200740Z 28017KT 26/M07 A3006 RMK A01 T02601074  RH  010%=      5-min Rain = 0
KGU1 200741Z 29017KT 26/M08 A3006 RMK A01 T02591075  RH  010%=      5-min Rain = 0
KGU1 200742Z 30019KT 26/M08 A3006 RMK A01 T02601076  RH  010%=      5-min Rain = 0
KGU1 200743Z 30018KT 26/M08 A3006 RMK A01 T02621076  RH  010%=      5-min Rain = 0
KGU1 200744Z 29016KT 26/M08 A3006 RMK A01 T02611076  RH  010%=      5-min Rain = 0
KGU1 200745Z 29015KT 26/M07 A3006 RMK A01 T02601074  RH  010%=      5-min Rain = 0
KGU1 200746Z 29016KT 26/M08 A3006 RMK A01 T02581076  RH  010%=      5-min Rain = 0
KGU1 200747Z 30015KT 26/M08 A3006 RMK A01 T02581075  RH  011%=      5-min Rain = 0
KGU1 200748Z 29015KT 26/M08 A3006 RMK A01 T02571076  RH  010%=      5-min Rain = 0
KGU1 200749Z 29014KT 26/M08 A3006 RMK A01 T02581079  RH  010%=      5-min Rain = 0
KGU1 200750Z 29016KT 26/M08 A3006 RMK A01 T02581079  RH  010%=      5-min Rain = 0
KGU1 200751Z 30017G23KT 26/M08 A3006 RMK A01 T02591080  RH  010%=      5-min Rain = 0
KGU1 200752Z 29017KT 26/M08 A3006 RMK A01 T02591079  RH  010%=      5-min Rain = 0
KGU1 200753Z 29017KT 26/M08 A3006 RMK A01 T02601080  RH  010%=      5-min Rain = 0
KGU1 200754Z 30016KT 26/M08 A3006 RMK A01 T02611079  RH  010%=      5-min Rain = 0
KGU1 200755Z 29018G23KT 26/M08 A3006 RMK A01 T02591079  RH  010%=      5-min Rain = 0
KGU1 200756Z 30016G21KT 26/M08 A3006 RMK A01 T02611078  RH  010%=      5-min Rain = 0
KGU1 200757Z 30017KT 26/M08 A3006 RMK A01 T02601077  RH  010%=      5-min Rain = 0
KGU1 200758Z 29014KT 26/M08 A3006 RMK A01 T02601077  RH  010%=      5-min Rain = 0
KGU1 200759Z 29016KT 26/M08 A3006 RMK A01 T02581077  RH  010%=      5-min Rain = 0
KGU1 200800Z 29019KT 26/M08 A3006 RMK A01 T02581078  RH  010%=      5-min Rain = 0
KGU1 200801Z 29020KT 26/M08 A3006 RMK A01 T02601079  RH  010%=      5-min Rain = 0
KGU1 200802Z 29016KT 26/M08 A3005 RMK A01 T02611080  RH  010%=      5-min Rain = 0
KGU1 200803Z 29017KT 26/M08 A3006 RMK A01 T02611078  RH  010%=      5-min Rain = 0
KGU1 200804Z 30016G21KT 26/M08 A3006 RMK A01 T02591077  RH  010%=      5-min Rain = 0
KGU1 200805Z 29017KT 26/M07 A3006 RMK A01 T02581074  RH  011%=      5-min Rain = 0
KGU1 200806Z 29018KT 26/M08 A3006 RMK A01 T02591075  RH  010%=      5-min Rain = 0
KGU1 200807Z 29018G24KT 26/M08 A3006 RMK A01 T02591075  RH  010%=      5-min Rain = 0
KGU1 200808Z 29015KT 26/M07 A3006 RMK A01 T02601071  RH  011%=      5-min Rain = 0
KGU1 200809Z 29015G21KT 26/M07 A3006 RMK A01 T02591071  RH  011%=      5-min Rain = 0
KGU1 200810Z 29015KT 26/M07 A3006 RMK A01 T02581072  RH  011%=      5-min Rain = 0
KGU1 200811Z 29015G20KT 26/M07 A3005 RMK A01 T02581070  RH  011%=      5-min Rain = 0
KGU1 200812Z 29017KT 26/M07 A3005 RMK A01 T02581069  RH  011%=      5-min Rain = 0
KGU1 200813Z 29018G23KT 26/M07 A3005 RMK A01 T02591065  RH  011%=      5-min Rain = 0
KGU1 200814Z 29022KT 26/M07 A3005 RMK A01 T02601066  RH  011%=      5-min Rain = 0
KGU1 200815Z 29019KT 26/M07 A3005 RMK A01 T02611067  RH  011%=      5-min Rain = 0
KGU1 200816Z 29017KT 26/M06 A3005 RMK A01 T02611064  RH  011%=      5-min Rain = 0
KGU1 200817Z 29014G20KT 26/M07 A3005 RMK A01 T02601066  RH  011%=      5-min Rain = 0
KGU1 200818Z 29016KT 26/M07 A3005 RMK A01 T02591066  RH  011%=      5-min Rain = 0
KGU1 200819Z 30017KT 26/M07 A3005 RMK A01 T02591066  RH  011%=      5-min Rain = 0
KGU1 200820Z 29014KT 26/M07 A3005 RMK A01 T02591066  RH  011%=      5-min Rain = 0
KGU1 200821Z 29016G21KT 26/M07 A3005 RMK A01 T02581065  RH  011%=      5-min Rain = 0
KGU1 200822Z 29016G23KT 26/M07 A3005 RMK A01 T02581065  RH  011%=      5-min Rain = 0
KGU1 200823Z 29019KT 26/M07 A3005 RMK A01 T02571065  RH  011%=      5-min Rain = 0
KGU1 200824Z 29020KT 26/M07 A3005 RMK A01 T02591066  RH  011%=      5-min Rain = 0
KGU1 200825Z 29016KT 26/M07 A3005 RMK A01 T02601065  RH  011%=      5-min Rain = 0
KGU1 200826Z 29017KT 26/M07 A3005 RMK A01 T02591065  RH  011%=      5-min Rain = 0
KGU1 200827Z 29018G25KT 26/M06 A3005 RMK A01 T02591064  RH  011%=      5-min Rain = 0
KGU1 200828Z 29015KT 26/M07 A3005 RMK A01 T02601065  RH  011%=      5-min Rain = 0
KGU1 200829Z 29016KT 26/M06 A3005 RMK A01 T02591064  RH  011%=      5-min Rain = 0
KGU1 200830Z 30020KT 26/M06 A3005 RMK A01 T02581064  RH  011%=      5-min Rain = 0
KGU1 200831Z 29018KT 26/M07 A3005 RMK A01 T02591065  RH  011%=      5-min Rain = 0
KGU1 200832Z 29017G23KT 26/M06 A3005 RMK A01 T02591064  RH  011%=      5-min Rain = 0
KGU1 200833Z 30020G26KT 26/M06 A3005 RMK A01 T02591064  RH  011%=      5-min Rain = 0
KGU1 200834Z 29017G26KT 26/M06 A3005 RMK A01 T02601064  RH  011%=      5-min Rain = 0
KGU1 200835Z 28019KT 26/M06 A3005 RMK A01 T02591063  RH  011%=      5-min Rain = 0
KGU1 200836Z 29020KT 26/M07 A3005 RMK A01 T02601065  RH  011%=      5-min Rain = 0
KGU1 200837Z 29018KT 26/M06 A3005 RMK A01 T02601064  RH  011%=      5-min Rain = 0
KGU1 200838Z 29019KT 26/M06 A3005 RMK A01 T02601064  RH  011%=      5-min Rain = 0
KGU1 200839Z 30015KT 26/M06 A3005 RMK A01 T02591063  RH  011%=      5-min Rain = 0
KGU1 200840Z 29015KT 26/M06 A3005 RMK A01 T02571061  RH  012%=      5-min Rain = 0
KGU1 200841Z 29018KT 26/M06 A3005 RMK A01 T02561061  RH  012%=      5-min Rain = 0
KGU1 200842Z 30017KT 26/M06 A3005 RMK A01 T02561062  RH  012%=      5-min Rain = 0
KGU1 200843Z 29015G21KT 26/M06 A3005 RMK A01 T02551061  RH  012%=      5-min Rain = 0
KGU1 200844Z 29018KT 26/M06 A3005 RMK A01 T02551062  RH  012%=      5-min Rain = 0
KGU1 200845Z 28019G24KT 26/M06 A3005 RMK A01 T02561062  RH  012%=      5-min Rain = 0
KGU1 200846Z 30018KT 26/M06 A3005 RMK A01 T02571063  RH  012%=      5-min Rain = 0
KGU1 200847Z 30016G22KT 26/M06 A3005 RMK A01 T02571062  RH  012%=      5-min Rain = 0
KGU1 200848Z 30015KT 26/M06 A3005 RMK A01 T02561061  RH  012%=      5-min Rain = 0
KGU1 200849Z 29014KT 26/M06 A3005 RMK A01 T02551060  RH  012%=      5-min Rain = 0
KGU1 200850Z 29016G21KT 25/M06 A3005 RMK A01 T02541059  RH  012%=      5-min Rain = 0
KGU1 200851Z 29016KT 25/M06 A3005 RMK A01 T02541060  RH  012%=      5-min Rain = 0
KGU1 200852Z 30015KT 25/M06 A3005 RMK A01 T02541061  RH  012%=      5-min Rain = 0
KGU1 200853Z 29016KT 25/M06 A3005 RMK A01 T02531061  RH  012%=      5-min Rain = 0
KGU1 200854Z 29018KT 25/M06 A3005 RMK A01 T02541061  RH  012%=      5-min Rain = 0
KGU1 200855Z 30018KT 26/M06 A3005 RMK A01 T02561061  RH  012%=      5-min Rain = 0
KGU1 200856Z 29015KT 26/M06 A3005 RMK A01 T02551059  RH  012%=      5-min Rain = 0
KGU1 200857Z 29016KT 26/M06 A3005 RMK A01 T02551059  RH  012%=      5-min Rain = 0
KGU1 200858Z 29017KT 25/M06 A3005 RMK A01 T02541060  RH  012%=      5-min Rain = 0
KGU1 200859Z 29017KT 25/M06 A3005 RMK A01 T02541061  RH  012%=      5-min Rain = 0
KGU1 200900Z 30016KT 26/M06 A3005 RMK A01 T02551060  RH  012%=      5-min Rain = 0
KGU1 200901Z 30014KT 25/M06 A3005 RMK A01 T02541059  RH  012%=      5-min Rain = 0
KGU1 200902Z 29017KT 25/M06 A3005 RMK A01 T02531060  RH  012%=      5-min Rain = 0
KGU1 200903Z 30016KT 25/M06 A3005 RMK A01 T02541060  RH  012%=      5-min Rain = 0
KGU1 200904Z 29015KT 25/M06 A3005 RMK A01 T02531060  RH  012%=      5-min Rain = 0
KGU1 200905Z 29014KT 25/M06 A3005 RMK A01 T02521059  RH  012%=      5-min Rain = 0
KGU1 200906Z 30015KT 25/M06 A3005 RMK A01 T02511059  RH  012%=      5-min Rain = 0
KGU1 200907Z 30017KT 25/M06 A3005 RMK A01 T02521060  RH  012%=      5-min Rain = 0
KGU1 200908Z 30015KT 25/M06 A3005 RMK A01 T02531059  RH  012%=      5-min Rain = 0
KGU1 200909Z 29013KT 25/M06 A3005 RMK A01 T02511058  RH  012%=      5-min Rain = 0
KGU1 200910Z 30014KT 25/M06 A3005 RMK A01 T02511058  RH  012%=      5-min Rain = 0
KGU1 200911Z 29015KT 25/M06 A3005 RMK A01 T02511058  RH  012%=      5-min Rain = 0
KGU1 200912Z 30017G22KT 25/M06 A3005 RMK A01 T02521059  RH  012%=      5-min Rain = 0
KGU1 200913Z 30015KT 25/M06 A3005 RMK A01 T02541058  RH  012%=      5-min Rain = 0
KGU1 200914Z 29016KT 25/M06 A3005 RMK A01 T02531058  RH  012%=      5-min Rain = 0
KGU1 200915Z 30014KT 25/M06 A3005 RMK A01 T02531058  RH  012%=      5-min Rain = 0
KGU1 200916Z 29016KT 25/M06 A3005 RMK A01 T02521058  RH  012%=      5-min Rain = 0
KGU1 200917Z 30017G22KT 25/M06 A3005 RMK A01 T02521059  RH  012%=      5-min Rain = 0
KGU1 200918Z 30016KT 25/M06 A3005 RMK A01 T02531059  RH  012%=      5-min Rain = 0
KGU1 200919Z 30017KT 25/M06 A3005 RMK A01 T02531059  RH  012%=      5-min Rain = 0
KGU1 200920Z 30013KT 25/M06 A3005 RMK A01 T02531058  RH  012%=      5-min Rain = 0
KGU1 200921Z 29016KT 25/M06 A3005 RMK A01 T02511057  RH  013%=      5-min Rain = 0
KGU1 200922Z 30015KT 25/M06 A3005 RMK A01 T02511057  RH  013%=      5-min Rain = 0
KGU1 200923Z 30015KT 25/M06 A3005 RMK A01 T02511057  RH  013%=      5-min Rain = 0
KGU1 200924Z 30014G19KT 25/M06 A3005 RMK A01 T02511057  RH  013%=      5-min Rain = 0
KGU1 200925Z 30013KT 25/M06 A3005 RMK A01 T02511057  RH  013%=      5-min Rain = 0
KGU1 200926Z 30014G19KT 25/M06 A3005 RMK A01 T02501056  RH  013%=      5-min Rain = 0
KGU1 200927Z 30018KT 25/M06 A3005 RMK A01 T02501057  RH  013%=      5-min Rain = 0
KGU1 200928Z 30015G20KT 25/M06 A3005 RMK A01 T02521057  RH  012%=      5-min Rain = 0
KGU1 200929Z 30014KT 25/M06 A3005 RMK A01 T02521056  RH  013%=      5-min Rain = 0
KGU1 200930Z 30013KT 25/M06 A3005 RMK A01 T02521056  RH  013%=      5-min Rain = 0
KGU1 200931Z 29015KT 25/M06 A3005 RMK A01 T02511055  RH  013%=      5-min Rain = 0
KGU1 200932Z 30015KT 25/M06 A3005 RMK A01 T02501056  RH  013%=      5-min Rain = 0
KGU1 200933Z 30013KT 25/M06 A3005 RMK A01 T02501055  RH  013%=      5-min Rain = 0
KGU1 200934Z 30017KT 25/M06 A3005 RMK A01 T02501057  RH  013%=      5-min Rain = 0
KGU1 200935Z 29018KT 25/M06 A3005 RMK A01 T02521057  RH  012%=      5-min Rain = 0
KGU1 200936Z 29017KT 25/M06 A3005 RMK A01 T02541057  RH  012%=      5-min Rain = 0
KGU1 200937Z 30016KT 26/M06 A3005 RMK A01 T02561057  RH  012%=      5-min Rain = 0
KGU1 200938Z 30016KT 25/M06 A3005 RMK A01 T02541056  RH  012%=      5-min Rain = 0
KGU1 200939Z 30014KT 25/M06 A3005 RMK A01 T02531056  RH  013%=      5-min Rain = 0
KGU1 200940Z 30016KT 25/M06 A3005 RMK A01 T02521055  RH  013%=      5-min Rain = 0
KGU1 200941Z 30016KT 25/M06 A3005 RMK A01 T02531055  RH  013%=      5-min Rain = 0
KGU1 200942Z 29018KT 26/M06 A3005 RMK A01 T02551055  RH  012%=      5-min Rain = 0
KGU1 200943Z 29017KT 26/M06 A3005 RMK A01 T02561055  RH  012%=      5-min Rain = 0
KGU1 200944Z 30014KT 26/M05 A3005 RMK A01 T02561054  RH  012%=      5-min Rain = 0
KGU1 200945Z 30013KT 25/M05 A3005 RMK A01 T02541054  RH  013%=      5-min Rain = 0
KGU1 200946Z 30012KT 25/M05 A3005 RMK A01 T02511053  RH  013%=      5-min Rain = 0
KGU1 200947Z 30013KT 25/M05 A3005 RMK A01 T02491053  RH  013%=      5-min Rain = 0
KGU1 200948Z 30014KT 25/M05 A3005 RMK A01 T02491052  RH  013%=      5-min Rain = 0
KGU1 200949Z 29012KT 25/M05 A3005 RMK A01 T02491053  RH  013%=      5-min Rain = 0
KGU1 200950Z 30015G21KT 25/M05 A3005 RMK A01 T02491053  RH  013%=      5-min Rain = 0
KGU1 200951Z 30017KT 25/M05 A3005 RMK A01 T02511054  RH  013%=      5-min Rain = 0
KGU1 200952Z 29015KT 25/M05 A3005 RMK A01 T02521053  RH  013%=      5-min Rain = 0
KGU1 200953Z 30017KT 25/M05 A3005 RMK A01 T02521053  RH  013%=      5-min Rain = 0
KGU1 200954Z 30017KT 25/M05 A3005 RMK A01 T02541054  RH  013%=      5-min Rain = 0
KGU1 200955Z 30015KT 25/M05 A3005 RMK A01 T02541052  RH  013%=      5-min Rain = 0
KGU1 200956Z 30012KT 25/M05 A3005 RMK A01 T02531052  RH  013%=      5-min Rain = 0
KGU1 200957Z 30013KT 25/M05 A3005 RMK A01 T02521051  RH  013%=      5-min Rain = 0
KGU1 200958Z 30013KT 25/M05 A3005 RMK A01 T02511051  RH  013%=      5-min Rain = 0
KGU1 200959Z 30013KT 25/M05 A3005 RMK A01 T02501050  RH  013%=      5-min Rain = 0
KGU1 201000Z 30012KT 25/M05 A3005 RMK A01 T02491050  RH  013%=      5-min Rain = 0
KGU1 201001Z 30014KT 25/M05 A3005 RMK A01 T02481051  RH  013%=      5-min Rain = 0
KGU1 201002Z 30013KT 25/M05 A3005 RMK A01 T02481050  RH  013%=      5-min Rain = 0
KGU1 201003Z 30012KT 25/M05 A3005 RMK A01 T02481051  RH  013%=      5-min Rain = 0
KGU1 201004Z 30014KT 25/M05 A3005 RMK A01 T02481050  RH  013%=      5-min Rain = 0
KGU1 201005Z 30014KT 25/M05 A3005 RMK A01 T02491050  RH  013%=      5-min Rain = 0
KGU1 201006Z 30015KT 25/M05 A3005 RMK A01 T02491050  RH  014%=      5-min Rain = 0
KGU1 201007Z 30014KT 25/M05 A3005 RMK A01 T02491051  RH  013%=      5-min Rain = 0
KGU1 201008Z 29014KT 25/M05 A3005 RMK A01 T02491050  RH  013%=      5-min Rain = 0
KGU1 201009Z 30013G18KT 25/M05 A3005 RMK A01 T02491050  RH  013%=      5-min Rain = 0
KGU1 201010Z 30014KT 25/M05 A3005 RMK A01 T02491050  RH  013%=      5-min Rain = 0
KGU1 201011Z 30013KT 25/M05 A3005 RMK A01 T02501049  RH  013%=      5-min Rain = 0
KGU1 201012Z 30014KT 25/M05 A3005 RMK A01 T02491049  RH  013%=      5-min Rain = 0
KGU1 201013Z 30015KT 25/M05 A3005 RMK A01 T02501050  RH  013%=      5-min Rain = 0
KGU1 201014Z 30015KT 25/M05 A3005 RMK A01 T02501050  RH  013%=      5-min Rain = 0
KGU1 201015Z 30016KT 25/M05 A3005 RMK A01 T02501050  RH  013%=      5-min Rain = 0
KGU1 201016Z 29015KT 25/M05 A3005 RMK A01 T02521049  RH  013%=      5-min Rain = 0
KGU1 201017Z 30015KT 25/M05 A3005 RMK A01 T02511049  RH  013%=      5-min Rain = 0
KGU1 201018Z 30014KT 25/M05 A3005 RMK A01 T02501050  RH  013%=      5-min Rain = 0
KGU1 201019Z 30014KT 25/M05 A3005 RMK A01 T02491050  RH  013%=      5-min Rain = 0
KGU1 201020Z 30014KT 25/M05 A3005 RMK A01 T02491050  RH  013%=      5-min Rain = 0
KGU1 201021Z 30014KT 25/M05 A3005 RMK A01 T02491050  RH  013%=      5-min Rain = 0
KGU1 201022Z 30013KT 25/M05 A3005 RMK A01 T02501050  RH  013%=      5-min Rain = 0
KGU1 201023Z 30014KT 25/M05 A3005 RMK A01 T02491050  RH  013%=      5-min Rain = 0
KGU1 201024Z 30014KT 25/M05 A3005 RMK A01 T02481050  RH  014%=      5-min Rain = 0
KGU1 201025Z 30013KT 25/M05 A3005 RMK A01 T02491049  RH  014%=      5-min Rain = 0
KGU1 201026Z 30015KT 25/M05 A3005 RMK A01 T02481050  RH  014%=      5-min Rain = 0
KGU1 201027Z 30016KT 25/M05 A3005 RMK A01 T02491050  RH  013%=      5-min Rain = 0
KGU1 201028Z 29015KT 25/M05 A3005 RMK A01 T02501050  RH  013%=      5-min Rain = 0
KGU1 201029Z 30015KT 25/M05 A3005 RMK A01 T02501051  RH  013%=      5-min Rain = 0
KGU1 201030Z 30014KT 25/M05 A3005 RMK A01 T02501050  RH  013%=      5-min Rain = 0
KGU1 201031Z 30015KT 25/M05 A3005 RMK A01 T02501050  RH  013%=      5-min Rain = 0
KGU1 201032Z 29016KT 25/M05 A3005 RMK A01 T02511051  RH  013%=      5-min Rain = 0
KGU1 201033Z 30014KT 25/M05 A3005 RMK A01 T02511050  RH  013%=      5-min Rain = 0
KGU1 201034Z 30014KT 25/M05 A3005 RMK A01 T02511050  RH  013%=      5-min Rain = 0
KGU1 201035Z 30012KT 25/M05 A3005 RMK A01 T02501050  RH  013%=      5-min Rain = 0
KGU1 201036Z 30015KT 25/M05 A3005 RMK A01 T02491050  RH  013%=      5-min Rain = 0
KGU1 201037Z 30013KT 25/M05 A3005 RMK A01 T02491050  RH  013%=      5-min Rain = 0
KGU1 201038Z 30014KT 25/M05 A3005 RMK A01 T02491050  RH  013%=      5-min Rain = 0
KGU1 201039Z 29015KT 25/M05 A3005 RMK A01 T02481050  RH  013%=      5-min Rain = 0
KGU1 201040Z 30014KT 25/M05 A3005 RMK A01 T02481050  RH  014%=      5-min Rain = 0
KGU1 201041Z 30013KT 25/M05 A3005 RMK A01 T02481051  RH  013%=      5-min Rain = 0
KGU1 201042Z 30017KT 25/M05 A3005 RMK A01 T02481051  RH  013%=      5-min Rain = 0
KGU1 201043Z 30016KT 25/M05 A3005 RMK A01 T02501052  RH  013%=      5-min Rain = 0
KGU1 201044Z 30014KT 25/M05 A3005 RMK A01 T02501050  RH  013%=      5-min Rain = 0
KGU1 201045Z 30013KT 25/M05 A3005 RMK A01 T02491050  RH  013%=      5-min Rain = 0
KGU1 201046Z 30014KT 25/M05 A3005 RMK A01 T02471051  RH  014%=      5-min Rain = 0
KGU1 201047Z 29016KT 25/M05 A3005 RMK A01 T02471051  RH  014%=      5-min Rain = 0
KGU1 201048Z 30014KT 25/M05 A3005 RMK A01 T02481051  RH  013%=      5-min Rain = 0
KGU1 201049Z 30013KT 25/M05 A3005 RMK A01 T02471050  RH  014%=      5-min Rain = 0
KGU1 201050Z 30013KT 25/M05 A3005 RMK A01 T02461050  RH  014%=      5-min Rain = 0
KGU1 201051Z 30015KT 25/M05 A3005 RMK A01 T02471051  RH  013%=      5-min Rain = 0
KGU1 201052Z 30016KT 25/M05 A3005 RMK A01 T02491052  RH  013%=      5-min Rain = 0
KGU1 201053Z 30015KT 25/M05 A3005 RMK A01 T02491050  RH  013%=      5-min Rain = 0
KGU1 201054Z 30012KT 25/M05 A3005 RMK A01 T02491050  RH  013%=      5-min Rain = 0
KGU1 201055Z 30014KT 25/M05 A3005 RMK A01 T02481050  RH  014%=      5-min Rain = 0
KGU1 201056Z 30014KT 25/M05 A3005 RMK A01 T02481050  RH  014%=      5-min Rain = 0
KGU1 201057Z 30015KT 25/M05 A3005 RMK A01 T02481051  RH  013%=      5-min Rain = 0
KGU1 201058Z 30014KT 25/M05 A3005 RMK A01 T02491051  RH  013%=      5-min Rain = 0
KGU1 201059Z 30014KT 25/M05 A3005 RMK A01 T02491051  RH  013%=      5-min Rain = 0
KGU1 201100Z 30014G19KT 25/M05 A3005 RMK A01 T02491051  RH  013%=      5-min Rain = 0
KGU1 201101Z 30019KT 25/M05 A3005 RMK A01 T02491052  RH  013%=      5-min Rain = 0
KGU1 201102Z 29017G22KT 25/M05 A3005 RMK A01 T02531054  RH  013%=      5-min Rain = 0
KGU1 201103Z 30014KT 25/M05 A3005 RMK A01 T02531052  RH  013%=      5-min Rain = 0
KGU1 201104Z 30014KT 25/M05 A3005 RMK A01 T02521051  RH  013%=      5-min Rain = 0
KGU1 201105Z 30012KT 25/M05 A3005 RMK A01 T02501051  RH  013%=      5-min Rain = 0
KGU1 201106Z 30014KT 25/M05 A3005 RMK A01 T02481051  RH  013%=      5-min Rain = 0
KGU1 201107Z 30014KT 25/M05 A3005 RMK A01 T02481051  RH  013%=      5-min Rain = 0
KGU1 201108Z 30013KT 25/M05 A3005 RMK A01 T02481051  RH  013%=      5-min Rain = 0
KGU1 201109Z 30014KT 25/M05 A3005 RMK A01 T02481051  RH  013%=      5-min Rain = 0
KGU1 201110Z 30013KT 25/M05 A3005 RMK A01 T02471051  RH  014%=      5-min Rain = 0
KGU1 201111Z 31013KT 25/M05 A3005 RMK A01 T02471051  RH  014%=      5-min Rain = 0
KGU1 201112Z 30013KT 25/M05 A3005 RMK A01 T02491052  RH  013%=      5-min Rain = 0
KGU1 201113Z 30013KT 25/M05 A3005 RMK A01 T02501050  RH  013%=      5-min Rain = 0
KGU1 201114Z 30013KT 25/M05 A3005 RMK A01 T02491050  RH  013%=      5-min Rain = 0
KGU1 201115Z 30012KT 25/M05 A3005 RMK A01 T02471051  RH  014%=      5-min Rain = 0
KGU1 201116Z 30013KT 25/M05 A3005 RMK A01 T02471050  RH  014%=      5-min Rain = 0
KGU1 201117Z 30015KT 25/M05 A3005 RMK A01 T02471051  RH  013%=      5-min Rain = 0
KGU1 201118Z 30014KT 25/M05 A3005 RMK A01 T02491051  RH  013%=      5-min Rain = 0
KGU1 201119Z 30014KT 25/M05 A3005 RMK A01 T02481050  RH  013%=      5-min Rain = 0
KGU1 201120Z 30015KT 25/M05 A3005 RMK A01 T02481051  RH  013%=      5-min Rain = 0
KGU1 201121Z 30013KT 25/M05 A3005 RMK A01 T02481051  RH  013%=      5-min Rain = 0
KGU1 201122Z 30014G19KT 25/M05 A3005 RMK A01 T02481051  RH  013%=      5-min Rain = 0
KGU1 201123Z 30013KT 25/M05 A3005 RMK A01 T02481051  RH  013%=      5-min Rain = 0
KGU1 201124Z 30013KT 25/M05 A3005 RMK A01 T02481051  RH  013%=      5-min Rain = 0
KGU1 201125Z 30013KT 25/M05 A3005 RMK A01 T02471051  RH  014%=      5-min Rain = 0
KGU1 201126Z 30015KT 25/M05 A3005 RMK A01 T02461051  RH  014%=      5-min Rain = 0
KGU1 201127Z 30014KT 25/M05 A3005 RMK A01 T02461051  RH  014%=      5-min Rain = 0
KGU1 201128Z 30013KT 25/M05 A3005 RMK A01 T02461051  RH  014%=      5-min Rain = 0
KGU1 201129Z 30015KT 25/M05 A3005 RMK A01 T02451051  RH  014%=      5-min Rain = 0
KGU1 201130Z 30014KT 25/M05 A3005 RMK A01 T02471052  RH  013%=      5-min Rain = 0
KGU1 201131Z 30013KT 25/M05 A3005 RMK A01 T02471051  RH  014%=      5-min Rain = 0
KGU1 201132Z 30015KT 25/M05 A3005 RMK A01 T02461051  RH  014%=      5-min Rain = 0
KGU1 201133Z 30015KT 25/M05 A3005 RMK A01 T02461051  RH  014%=      5-min Rain = 0
KGU1 201134Z 30013KT 25/M05 A3005 RMK A01 T02461052  RH  013%=      5-min Rain = 0
KGU1 201135Z 30012KT 25/M05 A3005 RMK A01 T02451051  RH  014%=      5-min Rain = 0
KGU1 201136Z 30013KT 24/M05 A3005 RMK A01 T02441052  RH  014%=      5-min Rain = 0
KGU1 201137Z 30013KT 24/M05 A3005 RMK A01 T02441052  RH  014%=      5-min Rain = 0
KGU1 201138Z 30015KT 25/M05 A3005 RMK A01 T02451052  RH  014%=      5-min Rain = 0
KGU1 201139Z 30013KT 25/M05 A3005 RMK A01 T02461052  RH  013%=      5-min Rain = 0
KGU1 201140Z 30013KT 25/M05 A3005 RMK A01 T02471051  RH  013%=      5-min Rain = 0
KGU1 201141Z 30015KT 25/M05 A3005 RMK A01 T02471052  RH  013%=      5-min Rain = 0
KGU1 201142Z 30014KT 25/M05 A3005 RMK A01 T02481053  RH  013%=      5-min Rain = 0
KGU1 201143Z 30014KT 25/M05 A3005 RMK A01 T02471052  RH  013%=      5-min Rain = 0
KGU1 201144Z 30015KT 25/M05 A3005 RMK A01 T02471053  RH  013%=      5-min Rain = 0
KGU1 201145Z 29014KT 25/M05 A3005 RMK A01 T02471052  RH  013%=      5-min Rain = 0
KGU1 201146Z 30016KT 25/M05 A3005 RMK A01 T02481054  RH  013%=      5-min Rain = 0
KGU1 201147Z 31015KT 25/M06 A3005 RMK A01 T02501055  RH  013%=      5-min Rain = 0
KGU1 201148Z 30016G22KT 25/M06 A3005 RMK A01 T02511055  RH  013%=      5-min Rain = 0
KGU1 201149Z 30014KT 25/M05 A3005 RMK A01 T02511053  RH  013%=      5-min Rain = 0
KGU1 201150Z 30014KT 25/M05 A3005 RMK A01 T02491052  RH  013%=      5-min Rain = 0
KGU1 201151Z 29014KT 25/M05 A3005 RMK A01 T02481052  RH  013%=      5-min Rain = 0
KGU1 201152Z 30015KT 25/M05 A3005 RMK A01 T02471053  RH  013%=      5-min Rain = 0
KGU1 201153Z 30014KT 25/M05 A3006 RMK A01 T02471053  RH  013%=      5-min Rain = 0
KGU1 201154Z 30014KT 25/M05 A3006 RMK A01 T02481053  RH  013%=      5-min Rain = 0
KGU1 201155Z 30013KT 25/M05 A3006 RMK A01 T02481053  RH  013%=      5-min Rain = 0
KGU1 201156Z 30013KT 25/M05 A3006 RMK A01 T02471052  RH  013%=      5-min Rain = 0
KGU1 201157Z 30013KT 25/M05 A3006 RMK A01 T02471052  RH  013%=      5-min Rain = 0
KGU1 201158Z 30015KT 25/M05 A3006 RMK A01 T02471052  RH  013%=      5-min Rain = 0
KGU1 201159Z 30014KT 25/M05 A3006 RMK A01 T02471053  RH  013%=      5-min Rain = 0
KGU1 201200Z 30015KT 25/M05 A3006 RMK A01 T02481052  RH  013%=      5-min Rain = 0
KGU1 201201Z 30016KT 25/M05 A3006 RMK A01 T02491053  RH  013%=      5-min Rain = 0
KGU1 201202Z 30016KT 25/M05 A3006 RMK A01 T02491053  RH  013%=      5-min Rain = 0
KGU1 201203Z 30014KT 25/M05 A3006 RMK A01 T02501054  RH  013%=      5-min Rain = 0
KGU1 201204Z 30013KT 25/M05 A3006 RMK A01 T02501051  RH  013%=      5-min Rain = 0
KGU1 201205Z 30013KT 25/M05 A3006 RMK A01 T02481052  RH  013%=      5-min Rain = 0
KGU1 201206Z 30014KT 25/M05 A3006 RMK A01 T02481053  RH  013%=      5-min Rain = 0
KGU1 201207Z 29014KT 25/M05 A3006 RMK A01 T02491053  RH  013%=      5-min Rain = 0
KGU1 201208Z 30014KT 25/M05 A3006 RMK A01 T02501053  RH  013%=      5-min Rain = 0
KGU1 201209Z 30013KT 25/M05 A3006 RMK A01 T02501053  RH  013%=      5-min Rain = 0
KGU1 201210Z 30012KT 25/M05 A3006 RMK A01 T02491051  RH  013%=      5-min Rain = 0
KGU1 201211Z 29014KT 25/M05 A3006 RMK A01 T02491052  RH  013%=      5-min Rain = 0
KGU1 201212Z 29013KT 25/M05 A3006 RMK A01 T02501052  RH  013%=      5-min Rain = 0
KGU1 201213Z 29014KT 25/M05 A3006 RMK A01 T02501053  RH  013%=      5-min Rain = 0
KGU1 201214Z 29014KT 25/M05 A3006 RMK A01 T02511053  RH  013%=      5-min Rain = 0
KGU1 201215Z 29014KT 25/M05 A3006 RMK A01 T02521052  RH  013%=      5-min Rain = 0
KGU1 201216Z 29013KT 25/M05 A3006 RMK A01 T02521052  RH  013%=      5-min Rain = 0
KGU1 201217Z 29013KT 25/M05 A3006 RMK A01 T02511050  RH  013%=      5-min Rain = 0
KGU1 201218Z 29014KT 25/M05 A3006 RMK A01 T02501051  RH  013%=      5-min Rain = 0
KGU1 201219Z 29015KT 25/M05 A3006 RMK A01 T02521054  RH  013%=      5-min Rain = 0
KGU1 201220Z 29016KT 25/M06 A3006 RMK A01 T02541055  RH  013%=      5-min Rain = 0
KGU1 201221Z 29014KT 26/M05 A3006 RMK A01 T02561053  RH  013%=      5-min Rain = 0
KGU1 201222Z 29016KT 26/M05 A3006 RMK A01 T02561054  RH  013%=      5-min Rain = 0
KGU1 201223Z 29017KT 26/M05 A3006 RMK A01 T02571054  RH  012%=      5-min Rain = 0
KGU1 201224Z 30015KT 26/M06 A3006 RMK A01 T02571055  RH  012%=      5-min Rain = 0
KGU1 201225Z 29015KT 26/M05 A3006 RMK A01 T02571052  RH  013%=      5-min Rain = 0
KGU1 201226Z 29015KT 26/M05 A3006 RMK A01 T02571053  RH  013%=      5-min Rain = 0
KGU1 201227Z 29015KT 26/M05 A3006 RMK A01 T02581053  RH  013%=      5-min Rain = 0
KGU1 201228Z 29015KT 26/M05 A3006 RMK A01 T02571051  RH  013%=      5-min Rain = 0
KGU1 201229Z 29015KT 26/M05 A3006 RMK A01 T02581054  RH  012%=      5-min Rain = 0
KGU1 201230Z 29014KT 26/M05 A3006 RMK A01 T02591052  RH  012%=      5-min Rain = 0
KGU1 201231Z 29014KT 26/M05 A3006 RMK A01 T02591051  RH  013%=      5-min Rain = 0
KGU1 201232Z 29012KT 26/M05 A3006 RMK A01 T02581049  RH  013%=      5-min Rain = 0
KGU1 201233Z 29016KT 26/M05 A3006 RMK A01 T02571051  RH  013%=      5-min Rain = 0
KGU1 201234Z 29015KT 26/M05 A3006 RMK A01 T02581052  RH  012%=      5-min Rain = 0
KGU1 201235Z 29012KT 26/M05 A3006 RMK A01 T02591049  RH  013%=      5-min Rain = 0
KGU1 201236Z 29013KT 26/M05 A3006 RMK A01 T02581047  RH  013%=      5-min Rain = 0
KGU1 201237Z 29013KT 26/M05 A3006 RMK A01 T02571047  RH  013%=      5-min Rain = 0
KGU1 201238Z 29014KT 26/M05 A3006 RMK A01 T02571050  RH  013%=      5-min Rain = 0
KGU1 201239Z 29015KT 26/M05 A3006 RMK A01 T02581050  RH  013%=      5-min Rain = 0
KGU1 201240Z 29013KT 26/M05 A3006 RMK A01 T02591051  RH  013%=      5-min Rain = 0
KGU1 201241Z 29014KT 26/M05 A3006 RMK A01 T02601050  RH  013%=      5-min Rain = 0
KGU1 201242Z 29015KT 26/M05 A3006 RMK A01 T02601050  RH  013%=      5-min Rain = 0
KGU1 201243Z 29015KT 26/M05 A3006 RMK A01 T02601048  RH  013%=      5-min Rain = 0
KGU1 201244Z 29014KT 26/M05 A3006 RMK A01 T02601049  RH  013%=      5-min Rain = 0
KGU1 201245Z 29015KT 26/M05 A3006 RMK A01 T02601050  RH  013%=      5-min Rain = 0
KGU1 201246Z 29013KT 26/M05 A3006 RMK A01 T02611049  RH  013%=      5-min Rain = 0
KGU1 201247Z 29013KT 26/M05 A3006 RMK A01 T02611047  RH  013%=      5-min Rain = 0
KGU1 201248Z 29014KT 26/M05 A3006 RMK A01 T02601048  RH  013%=      5-min Rain = 0
KGU1 201249Z 29013KT 26/M05 A3007 RMK A01 T02611048  RH  013%=      5-min Rain = 0
KGU1 201250Z 29014KT 26/M05 A3007 RMK A01 T02611047  RH  013%=      5-min Rain = 0
KGU1 201251Z 29015KT 26/M05 A3007 RMK A01 T02611048  RH  013%=      5-min Rain = 0
KGU1 201252Z 29014KT 26/M05 A3007 RMK A01 T02621050  RH  012%=      5-min Rain = 0
KGU1 201253Z 29012KT 26/M05 A3007 RMK A01 T02621047  RH  013%=      5-min Rain = 0
KGU1 201254Z 29013KT 26/M05 A3007 RMK A01 T02621046  RH  013%=      5-min Rain = 0
KGU1 201255Z 29012KT 26/M05 A3007 RMK A01 T02621046  RH  013%=      5-min Rain = 0
KGU1 201256Z 29011KT 26/M04 A3007 RMK A01 T02621043  RH  013%=      5-min Rain = 0
KGU1 201257Z 29012KT 26/M04 A3007 RMK A01 T02621044  RH  013%=      5-min Rain = 0
KGU1 201258Z 30012KT 26/M04 A3007 RMK A01 T02621043  RH  013%=      5-min Rain = 0
KGU1 201259Z 29012KT 26/M04 A3007 RMK A01 T02621043  RH  013%=      5-min Rain = 0
KGU1 201300Z 29012KT 26/M04 A3007 RMK A01 T02621044  RH  013%=      5-min Rain = 0
KGU1 201301Z 29012KT 26/M04 A3007 RMK A01 T02621041  RH  013%=      5-min Rain = 0
KGU1 201302Z 29013KT 26/M05 A3007 RMK A01 T02621046  RH  013%=      5-min Rain = 0
KGU1 201303Z 29013KT 26/M05 A3007 RMK A01 T02641045  RH  013%=      5-min Rain = 0
KGU1 201304Z 30013KT 26/M04 A3007 RMK A01 T02641044  RH  013%=      5-min Rain = 0
KGU1 201305Z 29010KT 26/M04 A3007 RMK A01 T02641042  RH  013%=      5-min Rain = 0
KGU1 201306Z 29010KT 26/M04 A3007 RMK A01 T02641040  RH  013%=      5-min Rain = 0
KGU1 201307Z 29011KT 26/M04 A3007 RMK A01 T02641040  RH  013%=      5-min Rain = 0
KGU1 201308Z 29009KT 26/M04 A3007 RMK A01 T02641041  RH  013%=      5-min Rain = 0
KGU1 201309Z 29010KT 27/M04 A3007 RMK A01 T02651036  RH  014%=      5-min Rain = 0
KGU1 201310Z 29012KT 27/M04 A3007 RMK A01 T02661040  RH  013%=      5-min Rain = 0
KGU1 201311Z 29010KT 27/M04 A3007 RMK A01 T02671039  RH  013%=      5-min Rain = 0
KGU1 201312Z 29012KT 27/M04 A3007 RMK A01 T02671042  RH  013%=      5-min Rain = 0
KGU1 201313Z 29011KT 27/M04 A3007 RMK A01 T02681043  RH  013%=      5-min Rain = 0
KGU1 201314Z 29010KT 27/M04 A3007 RMK A01 T02681038  RH  013%=      5-min Rain = 0
KGU1 201315Z 29012KT 27/M04 A3007 RMK A01 T02681039  RH  013%=      5-min Rain = 0
KGU1 201316Z 29013KT 27/M04 A3007 RMK A01 T02691044  RH  013%=      5-min Rain = 0
KGU1 201317Z 29015KT 27/M05 A3007 RMK A01 T02691045  RH  012%=      5-min Rain = 0
KGU1 201318Z 29014KT 27/M04 A3007 RMK A01 T02701044  RH  012%=      5-min Rain = 0
KGU1 201319Z 29012KT 27/M04 A3007 RMK A01 T02701042  RH  013%=      5-min Rain = 0
KGU1 201320Z 29013KT 27/M04 A3008 RMK A01 T02701041  RH  013%=      5-min Rain = 0
KGU1 201321Z 29012KT 27/M04 A3008 RMK A01 T02701043  RH  013%=      5-min Rain = 0
KGU1 201322Z 30011KT 27/M04 A3008 RMK A01 T02701040  RH  013%=      5-min Rain = 0
KGU1 201323Z 30012KT 27/M04 A3008 RMK A01 T02691041  RH  013%=      5-min Rain = 0
KGU1 201324Z 30014KT 27/M04 A3008 RMK A01 T02691041  RH  013%=      5-min Rain = 0
KGU1 201325Z 29014KT 27/M04 A3008 RMK A01 T02691041  RH  013%=      5-min Rain = 0
KGU1 201326Z 29012KT 27/M04 A3008 RMK A01 T02691039  RH  013%=      5-min Rain = 0
KGU1 201327Z 29013KT 27/M04 A3008 RMK A01 T02711041  RH  013%=      5-min Rain = 0
KGU1 201328Z 29012KT 27/M04 A3008 RMK A01 T02721040  RH  013%=      5-min Rain = 0
KGU1 201329Z 30011KT 27/M04 A3008 RMK A01 T02721037  RH  013%=      5-min Rain = 0
KGU1 201330Z 29014KT 27/M04 A3008 RMK A01 T02721041  RH  013%=      5-min Rain = 0
KGU1 201331Z 28015KT 27/M04 A3008 RMK A01 T02731043  RH  012%=      5-min Rain = 0
KGU1 201332Z 29012KT 27/M04 A3008 RMK A01 T02741040  RH  013%=      5-min Rain = 0
KGU1 201333Z 29012KT 27/M04 A3008 RMK A01 T02741040  RH  013%=      5-min Rain = 0
KGU1 201334Z 29012KT 27/M04 A3008 RMK A01 T02731037  RH  013%=      5-min Rain = 0
KGU1 201335Z 30012KT 27/M04 A3008 RMK A01 T02731039  RH  013%=      5-min Rain = 0
KGU1 201336Z 30012KT 27/M04 A3008 RMK A01 T02731039  RH  013%=      5-min Rain = 0
KGU1 201337Z 29014KT 27/M04 A3008 RMK A01 T02721039  RH  013%=      5-min Rain = 0
KGU1 201338Z 30012KT 27/M04 A3008 RMK A01 T02721038  RH  013%=      5-min Rain = 0
KGU1 201339Z 29014KT 27/M04 A3008 RMK A01 T02721039  RH  013%=      5-min Rain = 0
KGU1 201340Z 30015KT 27/M04 A3008 RMK A01 T02711042  RH  013%=      5-min Rain = 0
KGU1 201346Z 29012KT 27/M04 A3008 RMK A01 T02711039  RH  013%=      5-min Rain = 0
KGU1 201347Z 30013KT 27/M04 A3008 RMK A01 T02721039  RH  013%=      5-min Rain = 0
KGU1 201348Z 30012KT 27/M04 A3008 RMK A01 T02721039  RH  013%=      5-min Rain = 0
KGU1 201349Z 30012KT 27/M04 A3008 RMK A01 T02721041  RH  013%=      5-min Rain = 0
KGU1 201350Z 29012KT 27/M04 A3008 RMK A01 T02721039  RH  013%=      5-min Rain = 0
KGU1 201351Z 29011KT 27/M04 A3008 RMK A01 T02731036  RH  013%=      5-min Rain = 0
KGU1 201352Z 29012KT 27/M04 A3008 RMK A01 T02741038  RH  013%=      5-min Rain = 0
KGU1 201353Z 29013KT 28/M04 A3008 RMK A01 T02751038  RH  013%=      5-min Rain = 0
KGU1 201354Z 30012KT 28/M04 A3008 RMK A01 T02751039  RH  013%=      5-min Rain = 0
KGU1 201355Z 30013KT 28/M04 A3008 RMK A01 T02751038  RH  013%=      5-min Rain = 0
KGU1 201356Z 30011KT 27/M04 A3008 RMK A01 T02741035  RH  013%=      5-min Rain = 0
KGU1 201357Z 30012KT 27/M03 A3008 RMK A01 T02741034  RH  013%=      5-min Rain = 0
KGU1 201358Z 30012KT 28/M04 A3008 RMK A01 T02751037  RH  013%=      5-min Rain = 0
KGU1 201359Z 30012KT 28/M04 A3008 RMK A01 T02751040  RH  012%=      5-min Rain = 0
KGU1 201400Z 30013KT 28/M04 A3008 RMK A01 T02751038  RH  013%=      5-min Rain = 0
KGU1 201401Z 30012KT 28/M04 A3008 RMK A01 T02751039  RH  013%=      5-min Rain = 0
KGU1 201402Z 30012KT 28/M04 A3008 RMK A01 T02751038  RH  013%=      5-min Rain = 0
KGU1 201403Z 29013KT 28/M04 A3008 RMK A01 T02751038  RH  013%=      5-min Rain = 0
KGU1 201404Z 30013KT 28/M04 A3008 RMK A01 T02761039  RH  012%=      5-min Rain = 0
KGU1 201405Z 30012KT 28/M04 A3008 RMK A01 T02761039  RH  012%=      5-min Rain = 0
KGU1 201406Z 30012KT 28/M04 A3008 RMK A01 T02761037  RH  013%=      5-min Rain = 0
KGU1 201407Z 29012KT 28/M04 A3008 RMK A01 T02781035  RH  013%=      5-min Rain = 0
KGU1 201408Z 29014KT 28/M04 A3008 RMK A01 T02781043  RH  012%=      5-min Rain = 0
KGU1 201409Z 29012KT 28/M04 A3008 RMK A01 T02771042  RH  012%=      5-min Rain = 0
KGU1 201410Z 30011KT 28/M04 A3008 RMK A01 T02781037  RH  013%=      5-min Rain = 0
KGU1 201411Z 29012KT 28/M04 A3009 RMK A01 T02791037  RH  012%=      5-min Rain = 0
KGU1 201412Z 29015KT 28/M04 A3009 RMK A01 T02801041  RH  012%=      5-min Rain = 0
KGU1 201413Z 30015KT 28/M05 A3009 RMK A01 T02791045  RH  012%=      5-min Rain = 0
KGU1 201414Z 30013KT 28/M04 A3009 RMK A01 T02791044  RH  012%=      5-min Rain = 0
KGU1 201415Z 28014KT 28/M04 A3009 RMK A01 T02791042  RH  012%=      5-min Rain = 0
KGU1 201416Z 29012KT 28/M04 A3009 RMK A01 T02801040  RH  012%=      5-min Rain = 0
KGU1 201417Z 30013KT 28/M04 A3009 RMK A01 T02801039  RH  012%=      5-min Rain = 0
KGU1 201418Z 29012KT 28/M04 A3009 RMK A01 T02801040  RH  012%=      5-min Rain = 0
KGU1 201419Z 29013KT 28/M04 A3009 RMK A01 T02811038  RH  012%=      5-min Rain = 0
KGU1 201420Z 29012G17KT 28/M04 A3009 RMK A01 T02811040  RH  012%=      5-min Rain = 0
KGU1 201421Z 29014KT 28/M04 A3009 RMK A01 T02811042  RH  012%=      5-min Rain = 0
KGU1 201422Z 29014KT 28/M04 A3009 RMK A01 T02811041  RH  012%=      5-min Rain = 0
KGU1 201423Z 29013KT 28/M04 A3009 RMK A01 T02821040  RH  012%=      5-min Rain = 0
KGU1 201424Z 28011KT 28/M04 A3009 RMK A01 T02821040  RH  012%=      5-min Rain = 0
KGU1 201425Z 29011KT 28/M04 A3009 RMK A01 T02821039  RH  012%=      5-min Rain = 0
KGU1 201426Z 30012KT 28/M04 A3009 RMK A01 T02831041  RH  012%=      5-min Rain = 0
KGU1 201427Z 29014KT 28/M04 A3009 RMK A01 T02831041  RH  012%=      5-min Rain = 0
KGU1 201428Z 29013KT 28/M04 A3009 RMK A01 T02831043  RH  012%=      5-min Rain = 0
KGU1 201429Z 29013KT 28/M04 A3009 RMK A01 T02831042  RH  012%=      5-min Rain = 0
KGU1 201430Z 29014KT 28/M04 A3009 RMK A01 T02831044  RH  011%=      5-min Rain = 0
KGU1 201431Z 28011KT 28/M04 A3009 RMK A01 T02841040  RH  012%=      5-min Rain = 0
KGU1 201432Z 29014KT 29/M04 A3009 RMK A01 T02851039  RH  012%=      5-min Rain = 0
KGU1 201433Z 29014KT 29/M04 A3009 RMK A01 T02851044  RH  011%=      5-min Rain = 0
KGU1 201434Z 29012KT 28/M05 A3009 RMK A01 T02841047  RH  011%=      5-min Rain = 0
KGU1 201435Z 29014KT 28/M04 A3009 RMK A01 T02841041  RH  012%=      5-min Rain = 0
KGU1 201436Z 29012KT 28/M05 A3009 RMK A01 T02841045  RH  011%=      5-min Rain = 0
KGU1 201437Z 29013KT 29/M04 A3009 RMK A01 T02851040  RH  012%=      5-min Rain = 0
KGU1 201438Z 28011KT 29/M04 A3009 RMK A01 T02861044  RH  011%=      5-min Rain = 0
KGU1 201439Z 29011KT 29/M04 A3009 RMK A01 T02861041  RH  012%=      5-min Rain = 0
KGU1 201440Z 29011KT 29/M04 A3009 RMK A01 T02871039  RH  012%=      5-min Rain = 0
KGU1 201441Z 29011KT 29/M04 A3009 RMK A01 T02881040  RH  012%=      5-min Rain = 0
KGU1 201442Z 29010KT 29/M04 A3009 RMK A01 T02891037  RH  012%=      5-min Rain = 0
KGU1 201443Z 29010KT 29/M04 A3009 RMK A01 T02901044  RH  011%=      5-min Rain = 0
KGU1 201444Z 28009G14KT 29/M05 A3009 RMK A01 T02891045  RH  011%=      5-min Rain = 0
KGU1 201445Z 27011KT 29/M04 A3009 RMK A01 T02891041  RH  011%=      5-min Rain = 0
KGU1 201446Z 27011KT 29/M04 A3009 RMK A01 T02901041  RH  011%=      5-min Rain = 0
KGU1 201447Z 27008KT 29/M04 A3009 RMK A01 T02901039  RH  012%=      5-min Rain = 0
KGU1 201448Z 29009KT 29/M04 A3009 RMK A01 T02911042  RH  011%=      5-min Rain = 0
KGU1 201449Z 25006KT 29/M04 A3009 RMK A01 T02901041  RH  011%=      5-min Rain = 0
KGU1 201450Z 27007KT 29/M03 A3009 RMK A01 T02911034  RH  012%=      5-min Rain = 0
KGU1 201451Z 29011KT 29/M04 A3009 RMK A01 T02931037  RH  012%=      5-min Rain = 0
KGU1 201452Z 29011KT 29/M04 A3009 RMK A01 T02921042  RH  011%=      5-min Rain = 0
KGU1 201453Z 29009KT 29/M04 A3009 RMK A01 T02911044  RH  011%=      5-min Rain = 0
KGU1 201454Z 28008KT 29/M04 A3009 RMK A01 T02911036  RH  012%=      5-min Rain = 0
KGU1 201455Z 30009KT 29/M04 A3009 RMK A01 T02921038  RH  011%=      5-min Rain = 0
KGU1 201456Z 26009KT 29/M03 A3009 RMK A01 T02931034  RH  012%=      5-min Rain = 0
KGU1 201457Z 24009KT 29/M04 A3009 RMK A01 T02931038  RH  011%=      5-min Rain = 0
KGU1 201458Z 23009KT 29/M04 A3009 RMK A01 T02911040  RH  011%=      5-min Rain = 0
KGU1 201459Z 22010KT 29/M04 A3009 RMK A01 T02901037  RH  012%=      5-min Rain = 0
KGU1 201500Z 23011G17KT 29/M04 A3009 RMK A01 T02881042  RH  011%=      5-min Rain = 0
KGU1 201501Z 23009KT 29/M04 A3009 RMK A01 T02861043  RH  011%=      5-min Rain = 0
KGU1 201502Z 22010KT 29/M04 A3009 RMK A01 T02851040  RH  012%=      5-min Rain = 0
KGU1 201503Z 24008KT 29/M04 A3009 RMK A01 T02861043  RH  011%=      5-min Rain = 0
KGU1 201504Z 23008KT 29/M04 A3009 RMK A01 T02871038  RH  012%=      5-min Rain = 0
KGU1 201505Z 25007KT 29/M04 A3009 RMK A01 T02891038  RH  012%=      5-min Rain = 0
KGU1 201506Z 23010G15KT 29/M04 A3009 RMK A01 T02891038  RH  012%=      5-min Rain = 0
KGU1 201507Z 24012KT 29/M04 A3009 RMK A01 T02871038  RH  012%=      5-min Rain = 0
KGU1 201508Z 24009KT 29/M04 A3009 RMK A01 T02871042  RH  011%=      5-min Rain = 0
KGU1 201509Z 26009KT 29/M04 A3009 RMK A01 T02881038  RH  012%=      5-min Rain = 0
KGU1 201510Z 26008KT 29/M04 A3009 RMK A01 T02891037  RH  012%=      5-min Rain = 0
KGU1 201511Z 27011KT 29/M04 A3009 RMK A01 T02901039  RH  012%=      5-min Rain = 0
KGU1 201512Z 25008KT 29/M03 A3009 RMK A01 T02921031  RH  012%=      5-min Rain = 0
KGU1 201513Z 25010KT 29/M04 A3009 RMK A01 T02941035  RH  012%=      5-min Rain = 0
KGU1 201514Z 25009KT 29/M04 A3009 RMK A01 T02901040  RH  011%=      5-min Rain = 0
KGU1 201515Z 25010KT 29/M03 A301 RMK A01 T02901034  RH  012%=      5-min Rain = 0
KGU1 201516Z 24007KT 29/M04 A3009 RMK A01 T02901035  RH  012%=      5-min Rain = 0
KGU1 201517Z 27009KT 29/M03 A3009 RMK A01 T02901033  RH  012%=      5-min Rain = 0
KGU1 201518Z 25007KT 29/M04 A3009 RMK A01 T02921035  RH  012%=      5-min Rain = 0
KGU1 201519Z 26009KT 29/M04 A3009 RMK A01 T02931037  RH  011%=      5-min Rain = 0
KGU1 201520Z 27006G12KT 29/M04 A3009 RMK A01 T02941038  RH  011%=      5-min Rain = 0
KGU1 201521Z 29011KT 29/M04 A3009 RMK A01 T02941041  RH  011%=      5-min Rain = 0
KGU1 201522Z 27011KT 29/M04 A3009 RMK A01 T02931038  RH  011%=      5-min Rain = 0
KGU1 201523Z 26010KT 29/M04 A3009 RMK A01 T02941039  RH  011%=      5-min Rain = 0
KGU1 201524Z 27008KT 29/M04 A3009 RMK A01 T02941039  RH  011%=      5-min Rain = 0
KGU1 201525Z 28010KT 29/M04 A3009 RMK A01 T02941037  RH  011%=      5-min Rain = 0
KGU1 201526Z 26012KT 30/M03 A3009 RMK A01 T02951033  RH  012%=      5-min Rain = 0
KGU1 201527Z 25011KT 30/M04 A3009 RMK A01 T02961039  RH  011%=      5-min Rain = 0
KGU1 201528Z 24008KT 29/M04 A3009 RMK A01 T02941036  RH  012%=      5-min Rain = 0
KGU1 201529Z 24008KT 29/M04 A3009 RMK A01 T02921037  RH  011%=      5-min Rain = 0
KGU1 201530Z 24007KT 29/M04 A3009 RMK A01 T02901039  RH  011%=      5-min Rain = 0
KGU1 201531Z 27008KT 29/M03 A3009 RMK A01 T02921031  RH  012%=      5-min Rain = 0
KGU1 201532Z 25011KT 30/M03 A3009 RMK A01 T02961034  RH  012%=      5-min Rain = 0
KGU1 201533Z 24010KT 29/M04 A3009 RMK A01 T02931041  RH  011%=      5-min Rain = 0
KGU1 201534Z 23008KT 29/M04 A3009 RMK A01 T02921036  RH  012%=      5-min Rain = 0
KGU1 201535Z 24011KT 29/M04 A3009 RMK A01 T02931037  RH  011%=      5-min Rain = 0
KGU1 201536Z 24011G16KT 29/M04 A3009 RMK A01 T02921042  RH  011%=      5-min Rain = 0
KGU1 201537Z 22013KT 29/M04 A3009 RMK A01 T02921039  RH  011%=      5-min Rain = 0
KGU1 201538Z 23011KT 29/M04 A3009 RMK A01 T02871041  RH  012%=      5-min Rain = 0
KGU1 201539Z 22012KT 29/M04 A3009 RMK A01 T02851039  RH  012%=      5-min Rain = 0
KGU1 201540Z 22011KT 29/M04 A3009 RMK A01 T02851041  RH  012%=      5-min Rain = 0
KGU1 201541Z 25011KT 29/M04 A3009 RMK A01 T02851040  RH  012%=      5-min Rain = 0
KGU1 201542Z 24008KT 29/M04 A3009 RMK A01 T02871044  RH  011%=      5-min Rain = 0
KGU1 201543Z 24008KT 29/M04 A3009 RMK A01 T02891042  RH  011%=      5-min Rain = 0
KGU1 201544Z 23010KT 29/M04 A3009 RMK A01 T02901038  RH  012%=      5-min Rain = 0
KGU1 201545Z 23012KT 29/M04 A3009 RMK A01 T02891037  RH  012%=      5-min Rain = 0
KGU1 201546Z 23012G17KT 29/M04 A3009 RMK A01 T02891036  RH  012%=      5-min Rain = 0
KGU1 201547Z 24010KT 29/M04 A3009 RMK A01 T02891043  RH  011%=      5-min Rain = 0
KGU1 201548Z 24012KT 29/M05 A3009 RMK A01 T02891045  RH  011%=      5-min Rain = 0
KGU1 201549Z 24009KT 29/M04 A3009 RMK A01 T02891044  RH  011%=      5-min Rain = 0
KGU1 201550Z 24010KT 29/M05 A3009 RMK A01 T02891045  RH  011%=      5-min Rain = 0
KGU1 201551Z 25007KT 29/M04 A3009 RMK A01 T02901043  RH  011%=      5-min Rain = 0
KGU1 201552Z 23010KT 29/M04 A3009 RMK A01 T02911043  RH  011%=      5-min Rain = 0
KGU1 201553Z 23010KT 29/M04 A3009 RMK A01 T02911041  RH  011%=      5-min Rain = 0
KGU1 201554Z 22011KT 29/M04 A3009 RMK A01 T02911036  RH  012%=      5-min Rain = 0
KGU1 201555Z 23011KT 29/M03 A3009 RMK A01 T02921034  RH  012%=      5-min Rain = 0
KGU1 201556Z 23010KT 29/M04 A3009 RMK A01 T02921036  RH  012%=      5-min Rain = 0
KGU1 201557Z 23009KT 29/M03 A3009 RMK A01 T02921031  RH  012%=      5-min Rain = 0
KGU1 201558Z 23009KT 29/M03 A3009 RMK A01 T02931033  RH  012%=      5-min Rain = 0
KGU1 201559Z 22013KT 29/M04 A3009 RMK A01 T02941039  RH  011%=      5-min Rain = 0
KGU1 201600Z 23014KT 29/M04 A3009 RMK A01 T02911039  RH  011%=      5-min Rain = 0
KGU1 201601Z 22011KT 29/M04 A3009 RMK A01 T02881038  RH  012%=      5-min Rain = 0
KGU1 201602Z 22010KT 29/M04 A3009 RMK A01 T02891038  RH  012%=      5-min Rain = 0
KGU1 201603Z 22012KT 29/M04 A3009 RMK A01 T02911036  RH  012%=      5-min Rain = 0
KGU1 201604Z 24011KT 29/M04 A3009 RMK A01 T02901038  RH  012%=      5-min Rain = 0
KGU1 201605Z 22011G16KT 29/M04 A3009 RMK A01 T02891037  RH  012%=      5-min Rain = 0
KGU1 201606Z 22009KT 29/M04 A3009 RMK A01 T02871035  RH  012%=      5-min Rain = 0
KGU1 201607Z 21010KT 29/M03 A3009 RMK A01 T02871034  RH  012%=      5-min Rain = 0
KGU1 201608Z 21012G18KT 29/M03 A3009 RMK A01 T02881033  RH  012%=      5-min Rain = 0
KGU1 201609Z 21015KT 29/M04 A3009 RMK A01 T02871038  RH  012%=      5-min Rain = 0
KGU1 201610Z 21010KT 28/M04 A3009 RMK A01 T02841037  RH  012%=      5-min Rain = 0
KGU1 201611Z 23011G16KT 29/M03 A3009 RMK A01 T02861034  RH  012%=      5-min Rain = 0
KGU1 201612Z 22010G16KT 29/M03 A3009 RMK A01 T02891033  RH  012%=      5-min Rain = 0
KGU1 201613Z 22010KT 29/M03 A3009 RMK A01 T02891034  RH  012%=      5-min Rain = 0
KGU1 201614Z 22009KT 29/M03 A3009 RMK A01 T02901030  RH  012%=      5-min Rain = 0
KGU1 201615Z 22011KT 29/M03 A3009 RMK A01 T02921031  RH  012%=      5-min Rain = 0
KGU1 201616Z 23010KT 29/M04 A3009 RMK A01 T02921035  RH  012%=      5-min Rain = 0
KGU1 201617Z 20009KT 29/M03 A3009 RMK A01 T02921033  RH  012%=      5-min Rain = 0
KGU1 201618Z 21011KT 29/M03 A3009 RMK A01 T02931032  RH  012%=      5-min Rain = 0
KGU1 201619Z 21012KT 30/M03 A3009 RMK A01 T02981032  RH  012%=      5-min Rain = 0
KGU1 201620Z 21013KT 30/M03 A3009 RMK A01 T02961033  RH  012%=      5-min Rain = 0
KGU1 201621Z 21013KT 29/M03 A3009 RMK A01 T02931034  RH  012%=      5-min Rain = 0
KGU1 201622Z 22012KT 29/M03 A3009 RMK A01 T02911034  RH  012%=      5-min Rain = 0
KGU1 201623Z 21014KT 29/M04 A3009 RMK A01 T02911036  RH  012%=      5-min Rain = 0
KGU1 201624Z 21014KT 29/M04 A3009 RMK A01 T02871038  RH  012%=      5-min Rain = 0
KGU1 201625Z 22010KT 29/M04 A3009 RMK A01 T02871035  RH  012%=      5-min Rain = 0
KGU1 201626Z 22011KT 29/M03 A3009 RMK A01 T02901034  RH  012%=      5-min Rain = 0
KGU1 201627Z 21012KT 29/M03 A3009 RMK A01 T02901034  RH  012%=      5-min Rain = 0
KGU1 201628Z 19010KT 29/M04 A3009 RMK A01 T02901035  RH  012%=      5-min Rain = 0
KGU1 201629Z 22012KT 29/M04 A3009 RMK A01 T02911035  RH  012%=      5-min Rain = 0
KGU1 201630Z 22012KT 29/M04 A3009 RMK A01 T02941035  RH  012%=      5-min Rain = 0
KGU1 201631Z 23011G16KT 29/M03 A3009 RMK A01 T02931034  RH  012%=      5-min Rain = 0
KGU1 201632Z 22012KT 29/M03 A3009 RMK A01 T02941031  RH  012%=      5-min Rain = 0
KGU1 201633Z 21012G18KT 29/M03 A3009 RMK A01 T02931032  RH  012%=      5-min Rain = 0
KGU1 201634Z 21012KT 29/M04 A3009 RMK A01 T02891037  RH  012%=      5-min Rain = 0
KGU1 201635Z 21007G13KT 29/M03 A301 RMK A01 T02881031  RH  012%=      5-min Rain = 0
KGU1 201636Z 23008G14KT 29/M03 A3009 RMK A01 T02921027  RH  012%=      5-min Rain = 0
KGU1 201637Z 24012KT 29/M04 A3009 RMK A01 T02941039  RH  011%=      5-min Rain = 0
KGU1 201638Z 24008G14KT 30/M04 A301 RMK A01 T02961037  RH  011%=      5-min Rain = 0
KGU1 201639Z 23007KT 30/M04 A301 RMK A01 T03001035  RH  011%=      5-min Rain = 0
KGU1 201640Z 24011G16KT 30/M04 A3009 RMK A01 T03001037  RH  011%=      5-min Rain = 0
KGU1 201641Z 23011KT 30/M04 A3009 RMK A01 T02981037  RH  011%=      5-min Rain = 0
KGU1 201642Z 24008KT 30/M04 A3009 RMK A01 T02961037  RH  011%=      5-min Rain = 0
KGU1 201643Z 26009KT 30/M04 A3009 RMK A01 T02971037  RH  011%=      5-min Rain = 0
KGU1 201644Z 24011KT 30/M04 A3009 RMK A01 T03001037  RH  011%=      5-min Rain = 0
KGU1 201645Z 24010KT 30/M04 A3009 RMK A01 T02981041  RH  011%=      5-min Rain = 0
KGU1 201646Z 25010KT 30/M04 A3009 RMK A01 T02981040  RH  011%=      5-min Rain = 0
KGU1 201647Z 24007KT 30/M04 A3009 RMK A01 T02981040  RH  011%=      5-min Rain = 0
KGU1 201648Z 25005KT 30/M04 A3009 RMK A01 T03001038  RH  011%=      5-min Rain = 0
KGU1 201649Z 24011KT 30/M04 A3009 RMK A01 T03011036  RH  011%=      5-min Rain = 0
KGU1 201650Z 23010KT 30/M04 A3009 RMK A01 T02991042  RH  011%=      5-min Rain = 0
KGU1 201651Z 25013KT 30/M04 A3009 RMK A01 T03001043  RH  011%=      5-min Rain = 0
KGU1 201652Z 24009KT 30/M05 A3009 RMK A01 T03001046  RH  010%=      5-min Rain = 0
KGU1 201653Z 24009KT 30/M04 A3009 RMK A01 T03001038  RH  011%=      5-min Rain = 0
KGU1 201654Z 22012KT 30/M04 A3009 RMK A01 T03001039  RH  011%=      5-min Rain = 0
KGU1 201655Z 22011KT 30/M04 A3009 RMK A01 T03001041  RH  011%=      5-min Rain = 0
KGU1 201656Z 23013G18KT 30/M04 A3009 RMK A01 T02991041  RH  011%=      5-min Rain = 0
KGU1 201657Z 24012KT 30/M04 A3009 RMK A01 T02991044  RH  010%=      5-min Rain = 0
KGU1 201658Z 24010KT 30/M04 A3009 RMK A01 T02991042  RH  011%=      5-min Rain = 0
KGU1 201659Z 24011KT 30/M04 A3009 RMK A01 T03011043  RH  010%=      5-min Rain = 0
KGU1 201700Z 24013KT 30/M04 A3009 RMK A01 T03011044  RH  010%=      5-min Rain = 0
KGU1 201701Z 24010KT 30/M05 A3009 RMK A01 T02991049  RH  010%=      5-min Rain = 0
KGU1 201702Z 25009G19KT 30/M05 A3009 RMK A01 T02971048  RH  010%=      5-min Rain = 0
KGU1 201703Z 24009KT 30/M05 A3009 RMK A01 T02951054  RH  010%=      5-min Rain = 0
KGU1 201704Z 25008KT 30/M04 A3009 RMK A01 T02951044  RH  011%=      5-min Rain = 0
KGU1 201705Z 24009G14KT 30/M04 A3009 RMK A01 T03011036  RH  011%=      5-min Rain = 0
KGU1 201706Z 25010KT 30/M05 A3009 RMK A01 T03021046  RH  010%=      5-min Rain = 0
KGU1 201707Z 22010KT 30/M04 A3009 RMK A01 T03001041  RH  011%=      5-min Rain = 0
KGU1 201708Z 23012KT 30/M04 A3009 RMK A01 T03011041  RH  011%=      5-min Rain = 0
KGU1 201709Z 23015G20KT 30/M05 A3009 RMK A01 T03011046  RH  010%=      5-min Rain = 0
KGU1 201710Z 24012KT 30/M05 A3009 RMK A01 T02981053  RH  010%=      5-min Rain = 0
KGU1 201711Z 24010KT 30/M04 A3009 RMK A01 T02971044  RH  011%=      5-min Rain = 0
KGU1 201712Z 23011G18KT 30/M04 A3009 RMK A01 T03001040  RH  011%=      5-min Rain = 0
KGU1 201713Z 22013G20KT 30/M05 A3009 RMK A01 T03011046  RH  010%=      5-min Rain = 0
KGU1 201714Z 22015G20KT 30/M05 A3009 RMK A01 T02991046  RH  010%=      5-min Rain = 0
KGU1 201715Z 22010G17KT 30/M04 A3009 RMK A01 T03001043  RH  011%=      5-min Rain = 0
KGU1 201716Z 22012G17KT 30/M04 A3009 RMK A01 T03001043  RH  010%=      5-min Rain = 0
KGU1 201717Z 23012KT 30/M04 A301 RMK A01 T03021043  RH  010%=      5-min Rain = 0
KGU1 201718Z 25007KT 30/M05 A301 RMK A01 T03011050  RH  010%=      5-min Rain = 0
KGU1 201719Z 24007KT 30/M04 A301 RMK A01 T03011042  RH  011%=      5-min Rain = 0
KGU1 201720Z 24009G15KT 30/M04 A301 RMK A01 T03021043  RH  010%=      5-min Rain = 0
KGU1 201721Z 24016KT 30/M05 A3009 RMK A01 T03011047  RH  010%=      5-min Rain = 0
KGU1 201722Z 24010KT 30/M05 A301 RMK A01 T02991050  RH  010%=      5-min Rain = 0
KGU1 201723Z 22008KT 30/M05 A3009 RMK A01 T02971050  RH  010%=      5-min Rain = 0
KGU1 201724Z 25008KT 30/M05 A3009 RMK A01 T02981047  RH  010%=      5-min Rain = 0
KGU1 201725Z 25006KT 30/M05 A301 RMK A01 T02971048  RH  010%=      5-min Rain = 0
KGU1 201726Z 22006KT 30/M04 A301 RMK A01 T02981040  RH  011%=      5-min Rain = 0
KGU1 201727Z 22010KT 30/M04 A3009 RMK A01 T03011041  RH  011%=      5-min Rain = 0
KGU1 201728Z 23011KT 30/M04 A3009 RMK A01 T03031042  RH  010%=      5-min Rain = 0
KGU1 201729Z 24013G23KT 30/M04 A3009 RMK A01 T03021042  RH  011%=      5-min Rain = 0
KGU1 201730Z 25009G16KT 31/M04 A3009 RMK A01 T03051035  RH  011%=      5-min Rain = 0
KGU1 201731Z 25006G11KT 31/M04 A3009 RMK A01 T03061042  RH  010%=      5-min Rain = 0
KGU1 201732Z 26012G17KT 31/M04 A3009 RMK A01 T03061042  RH  010%=      5-min Rain = 0
KGU1 201733Z 27008KT 31/M04 A301 RMK A01 T03071035  RH  011%=      5-min Rain = 0
KGU1 201734Z 28013G19KT 31/M04 A301 RMK A01 T03091037  RH  010%=      5-min Rain = 0
KGU1 201735Z 27007KT 31/M05 A301 RMK A01 T03051045  RH  010%=      5-min Rain = 0
KGU1 201736Z 26004KT 30/M04 A3009 RMK A01 T03021042  RH  011%=      5-min Rain = 0
KGU1 201737Z 24007KT 30/M04 A3009 RMK A01 T03011043  RH  010%=      5-min Rain = 0
KGU1 201738Z 21007KT 30/M04 A3009 RMK A01 T03031039  RH  011%=      5-min Rain = 0
KGU1 201739Z 22006G11KT 30/M05 A3009 RMK A01 T03031051  RH  010%=      5-min Rain = 0
KGU1 201740Z 25010G15KT 30/M05 A3009 RMK A01 T03001047  RH  010%=      5-min Rain = 0
KGU1 201741Z 23016G22KT 30/M05 A3009 RMK A01 T02991045  RH  010%=      5-min Rain = 0
KGU1 201742Z 22008KT 30/M05 A3009 RMK A01 T02961047  RH  010%=      5-min Rain = 0
KGU1 201743Z 30006G16KT 30/M05 A301 RMK A01 T02951048  RH  010%=      5-min Rain = 0
KGU1 201744Z 30007KT 30/M04 A301 RMK A01 T02961043  RH  011%=      5-min Rain = 0
KGU1 201745Z 27011KT 30/M04 A3009 RMK A01 T02981042  RH  011%=      5-min Rain = 0
KGU1 201746Z 28011KT 30/M04 A301 RMK A01 T02991039  RH  011%=      5-min Rain = 0
KGU1 201747Z 25008KT 30/M04 A301 RMK A01 T03041035  RH  011%=      5-min Rain = 0
KGU1 201748Z 23008G15KT 30/M04 A3009 RMK A01 T03041040  RH  011%=      5-min Rain = 0
KGU1 201749Z 23015G22KT 30/M04 A3009 RMK A01 T03041039  RH  011%=      5-min Rain = 0
KGU1 201750Z 24015KT 30/M05 A3009 RMK A01 T03021047  RH  010%=      5-min Rain = 0
KGU1 201751Z 24011KT 30/M05 A3009 RMK A01 T02971048  RH  010%=      5-min Rain = 0
KGU1 201752Z 24013G22KT 30/M04 A3009 RMK A01 T02971042  RH  011%=      5-min Rain = 0
KGU1 201753Z 25013KT 30/M05 A3009 RMK A01 T02961045  RH  011%=      5-min Rain = 0
KGU1 201754Z 23013KT 30/M05 A3009 RMK A01 T02961045  RH  011%=      5-min Rain = 0
KGU1 201755Z 21011KT 30/M05 A3009 RMK A01 T02951047  RH  011%=      5-min Rain = 0
KGU1 201756Z 23013G20KT 30/M04 A3009 RMK A01 T02961041  RH  011%=      5-min Rain = 0
KGU1 201757Z 23017G26KT 30/M04 A3009 RMK A01 T02991041  RH  011%=      5-min Rain = 0
KGU1 201758Z 22015KT 30/M04 A3009 RMK A01 T03001043  RH  010%=      5-min Rain = 0
KGU1 201759Z 25012KT 30/M04 A3009 RMK A01 T03001042  RH  011%=      5-min Rain = 0
KGU1 201800Z 27011KT 30/M05 A3009 RMK A01 T02991045  RH  010%=      5-min Rain = 0
KGU1 201801Z 25007KT 30/M05 A3009 RMK A01 T02981045  RH  011%=      5-min Rain = 0
KGU1 201802Z 21007G13KT 30/M04 A3009 RMK A01 T02981038  RH  011%=      5-min Rain = 0
KGU1 201803Z 21008G13KT 30/M03 A3009 RMK A01 T03021034  RH  011%=      5-min Rain = 0
KGU1 201804Z 22015G21KT 31/M04 A3009 RMK A01 T03051035  RH  011%=      5-min Rain = 0
KGU1 201805Z 23014G19KT 30/M04 A3009 RMK A01 T03041042  RH  010%=      5-min Rain = 0
KGU1 201806Z 22016G21KT 30/M04 A3009 RMK A01 T03021040  RH  011%=      5-min Rain = 0
KGU1 201807Z 21013KT 30/M04 A3009 RMK A01 T03021042  RH  010%=      5-min Rain = 0
KGU1 201808Z 21009KT 30/M05 A3009 RMK A01 T02971045  RH  011%=      5-min Rain = 0
KGU1 201809Z 22009G14KT 30/M04 A3009 RMK A01 T02971040  RH  011%=      5-min Rain = 0
KGU1 201810Z 24017G23KT 30/M04 A3009 RMK A01 T02991041  RH  011%=      5-min Rain = 0
KGU1 201811Z 25011G17KT 30/M05 A3009 RMK A01 T02971047  RH  010%=      5-min Rain = 0
KGU1 201812Z 25010KT 30/M05 A3009 RMK A01 T02961045  RH  011%=      5-min Rain = 0
KGU1 201813Z 23011G23KT 30/M04 A3009 RMK A01 T02971039  RH  011%=      5-min Rain = 0
KGU1 201814Z 23014G20KT 30/M05 A3009 RMK A01 T02991046  RH  010%=      5-min Rain = 0
KGU1 201815Z 24013G21KT 30/M05 A3009 RMK A01 T02991045  RH  010%=      5-min Rain = 0
KGU1 201816Z 22009KT 30/M05 A3009 RMK A01 T02961048  RH  010%=      5-min Rain = 0
KGU1 201817Z 23009KT 30/M04 A3009 RMK A01 T02951041  RH  011%=      5-min Rain = 0
KGU1 201818Z 23011G18KT 30/M04 A3009 RMK A01 T02991038  RH  011%=      5-min Rain = 0
KGU1 201819Z 24014KT 30/M04 A3009 RMK A01 T03021043  RH  010%=      5-min Rain = 0
KGU1 201820Z 22020G26KT 30/M05 A3008 RMK A01 T03011048  RH  010%=      5-min Rain = 0
KGU1 201821Z 24015KT 30/M04 A3009 RMK A01 T03021043  RH  010%=      5-min Rain = 0
KGU1 201822Z 23017KT 31/M04 A3009 RMK A01 T03051044  RH  010%=      5-min Rain = 0
KGU1 201823Z 23019G25KT 31/M04 A3009 RMK A01 T03051044  RH  010%=      5-min Rain = 0
KGU1 201824Z 25014G22KT 30/M05 A3009 RMK A01 T03021047  RH  010%=      5-min Rain = 0
KGU1 201825Z 24011G16KT 30/M04 A3009 RMK A01 T03001041  RH  011%=      5-min Rain = 0
KGU1 201826Z 22013KT 30/M04 A3009 RMK A01 T03041041  RH  010%=      5-min Rain = 0
KGU1 201827Z 22013G21KT 31/M04 A3009 RMK A01 T03051039  RH  011%=      5-min Rain = 0
KGU1 201828Z 25013G20KT 31/M05 A3009 RMK A01 T03051045  RH  010%=      5-min Rain = 0
KGU1 201829Z 23011G17KT 31/M04 A3009 RMK A01 T03061038  RH  011%=      5-min Rain = 0
KGU1 201830Z 22008KT 31/M04 A3009 RMK A01 T03061040  RH  010%=      5-min Rain = 0
KGU1 201831Z 22013G19KT 31/M04 A3009 RMK A01 T03061040  RH  010%=      5-min Rain = 0
KGU1 201832Z 22011G17KT 31/M04 A3009 RMK A01 T03051042  RH  010%=      5-min Rain = 0
KGU1 201833Z 26015KT 31/M04 A3009 RMK A01 T03051041  RH  010%=      5-min Rain = 0
KGU1 201834Z 26009KT 30/M05 A3009 RMK A01 T03031045  RH  010%=      5-min Rain = 0
KGU1 201835Z 22008G15KT 30/M04 A3008 RMK A01 T03011043  RH  010%=      5-min Rain = 0
KGU1 201836Z 23012G17KT 30/M04 A3008 RMK A01 T03031039  RH  011%=      5-min Rain = 0
KGU1 201837Z 23015G25KT 31/M05 A3008 RMK A01 T03051045  RH  010%=      5-min Rain = 0
KGU1 201838Z 23014KT 30/M04 A3008 RMK A01 T03041043  RH  010%=      5-min Rain = 0
KGU1 201839Z 24015G20KT 31/M05 A3008 RMK A01 T03071045  RH  010%=      5-min Rain = 0
KGU1 201840Z 23015KT 31/M05 A3008 RMK A01 T03061049  RH  010%=      5-min Rain = 0
KGU1 201841Z 22011KT 31/M04 A3008 RMK A01 T03051043  RH  010%=      5-min Rain = 0
KGU1 201842Z 23010G22KT 31/M04 A3008 RMK A01 T03081041  RH  010%=      5-min Rain = 0
KGU1 201843Z 23017G31KT 31/M05 A3008 RMK A01 T03091046  RH  010%=      5-min Rain = 0
KGU1 201844Z 27010G15KT 31/M05 A3008 RMK A01 T03051048  RH  010%=      5-min Rain = 0
KGU1 201845Z 25006KT 30/M05 A3008 RMK A01 T03021045  RH  010%=      5-min Rain = 0
KGU1 201846Z 22013G21KT 30/M04 A3008 RMK A01 T03041039  RH  011%=      5-min Rain = 0
KGU1 201847Z 19013G18KT 31/M05 A3007 RMK A01 T03051047  RH  010%=      5-min Rain = 0
KGU1 201848Z 23016G21KT 31/M05 A3007 RMK A01 T03051045  RH  010%=      5-min Rain = 0
KGU1 201849Z 25014KT 31/M04 A3008 RMK A01 T03051044  RH  010%=      5-min Rain = 0
KGU1 201850Z 25014KT 31/M04 A3008 RMK A01 T03051044  RH  010%=      5-min Rain = 0
KGU1 201851Z 25013G19KT 31/M04 A3008 RMK A01 T03061043  RH  010%=      5-min Rain = 0
KGU1 201852Z 22012G23KT 31/M04 A3008 RMK A01 T03081038  RH  010%=      5-min Rain = 0
KGU1 201853Z 24016KT 31/M05 A3008 RMK A01 T03081045  RH  010%=      5-min Rain = 0
KGU1 201854Z 27014G20KT 31/M05 A3008 RMK A01 T03061049  RH  010%=      5-min Rain = 0
KGU1 201855Z 29010G15KT 31/M05 A3008 RMK A01 T03051049  RH  010%=      5-min Rain = 0
KGU1 201856Z 28004KT 31/M05 A3007 RMK A01 T03051050  RH  010%=      5-min Rain = 0
KGU1 201857Z 24009KT 31/M05 A3008 RMK A01 T03061048  RH  010%=      5-min Rain = 0
KGU1 201858Z 27012G21KT 31/M05 A3007 RMK A01 T03061046  RH  010%=      5-min Rain = 0
KGU1 201859Z 24011G19KT 31/M04 A3007 RMK A01 T03071043  RH  010%=      5-min Rain = 0
KGU1 201900Z 22020G27KT 31/M05 A3007 RMK A01 T03101050  RH  009%=      5-min Rain = 0
KGU1 201901Z 24017G26KT 31/M05 A3007 RMK A01 T03121054  RH  009%=      5-min Rain = 0
KGU1 201902Z 24019KT 31/M06 A3007 RMK A01 T03111055  RH  009%=      5-min Rain = 0
KGU1 201903Z 24014KT 31/M06 A3007 RMK A01 T03101060  RH  009%=      5-min Rain = 0
KGU1 201904Z 22018G26KT 31/M06 A3007 RMK A01 T03091059  RH  009%=      5-min Rain = 0
KGU1 201905Z 23018G26KT 31/M06 A3007 RMK A01 T03081064  RH  009%=      5-min Rain = 0
KGU1 201906Z 25012G17KT 31/M06 A3007 RMK A01 T03071060  RH  009%=      5-min Rain = 0
KGU1 201907Z 22012G17KT 31/M06 A3007 RMK A01 T03111055  RH  009%=      5-min Rain = 0
KGU1 201908Z 24018KT 31/M06 A3007 RMK A01 T03121062  RH  008%=      5-min Rain = 0
KGU1 201909Z 23017G28KT 31/M06 A3007 RMK A01 T03121059  RH  009%=      5-min Rain = 0
KGU1 201910Z 23019G25KT 31/M06 A3007 RMK A01 T03121061  RH  009%=      5-min Rain = 0
KGU1 201911Z 22022G33KT 31/M06 A3007 RMK A01 T03111061  RH  009%=      5-min Rain = 0
KGU1 201912Z 21019G24KT 31/M06 A3007 RMK A01 T03091063  RH  009%=      5-min Rain = 0
KGU1 201913Z 22012KT 31/M06 A3006 RMK A01 T03081059  RH  009%=      5-min Rain = 0
KGU1 201914Z 25022G32KT 31/M06 A3006 RMK A01 T03101059  RH  009%=      5-min Rain = 0
KGU1 201915Z 25015G22KT 31/M06 A3007 RMK A01 T03071063  RH  009%=      5-min Rain = 0
KGU1 201916Z 27006KT 31/M06 A3007 RMK A01 T03081056  RH  009%=      5-min Rain = 0
KGU1 201917Z 23006KT 31/M05 A3007 RMK A01 T03121049  RH  009%=      5-min Rain = 0
KGU1 201918Z 27004KT 31/M06 A3007 RMK A01 T03121060  RH  009%=      5-min Rain = 0
KGU1 201919Z 24008KT 31/M05 A3007 RMK A01 T03111053  RH  009%=      5-min Rain = 0
KGU1 201920Z 23017G23KT 31/M06 A3006 RMK A01 T03121061  RH  009%=      5-min Rain = 0
KGU1 201921Z 23019G24KT 31/M06 A3007 RMK A01 T03141063  RH  008%=      5-min Rain = 0
KGU1 201922Z 25008G14KT 31/M07 A3007 RMK A01 T03101068  RH  008%=      5-min Rain = 0
KGU1 201923Z 25011KT 31/M06 A3007 RMK A01 T03081061  RH  009%=      5-min Rain = 0
KGU1 201924Z 24018G28KT 31/M06 A3007 RMK A01 T03101063  RH  009%=      5-min Rain = 0
KGU1 201925Z 23017G23KT 31/M06 A3007 RMK A01 T03101063  RH  009%=      5-min Rain = 0
KGU1 201926Z 21010G17KT 31/M07 A3007 RMK A01 T03081067  RH  008%=      5-min Rain = 0
KGU1 201927Z 23009G18KT 31/M07 A3007 RMK A01 T03081067  RH  008%=      5-min Rain = 0
KGU1 201928Z 26016G22KT 31/M06 A3007 RMK A01 T03091064  RH  008%=      5-min Rain = 0
KGU1 201929Z 26011G20KT 31/M06 A3007 RMK A01 T03101059  RH  009%=      5-min Rain = 0
KGU1 201930Z 24019G28KT 31/M06 A3006 RMK A01 T03131062  RH  008%=      5-min Rain = 0
KGU1 201931Z 24015G20KT 31/M06 A3006 RMK A01 T03111063  RH  008%=      5-min Rain = 0
KGU1 201932Z 24015G22KT 31/M06 A3006 RMK A01 T03121061  RH  009%=      5-min Rain = 0
KGU1 201933Z 25010KT 31/M06 A3007 RMK A01 T03141057  RH  009%=      5-min Rain = 0
KGU1 201934Z 24014G21KT 32/M06 A3007 RMK A01 T03151058  RH  009%=      5-min Rain = 0
KGU1 201935Z 26013KT 31/M06 A3007 RMK A01 T03141061  RH  008%=      5-min Rain = 0
KGU1 201936Z 24011G18KT 31/M06 A3007 RMK A01 T03141058  RH  009%=      5-min Rain = 0
KGU1 201937Z 22019G29KT 31/M06 A3006 RMK A01 T03141061  RH  008%=      5-min Rain = 0
KGU1 201938Z 23012KT 31/M07 A3006 RMK A01 T03131067  RH  008%=      5-min Rain = 0
KGU1 201939Z 22015KT 31/M06 A3006 RMK A01 T03111064  RH  008%=      5-min Rain = 0
KGU1 201940Z 23011KT 31/M07 A3006 RMK A01 T03121066  RH  008%=      5-min Rain = 0
KGU1 201941Z 21019G33KT 31/M06 A3005 RMK A01 T03121064  RH  008%=      5-min Rain = 0
KGU1 201942Z 23021G26KT 31/M07 A3006 RMK A01 T03131067  RH  008%=      5-min Rain = 0
KGU1 201943Z 23021G27KT 31/M07 A3006 RMK A01 T03121069  RH  008%=      5-min Rain = 0
KGU1 201944Z 22021G30KT 31/M07 A3006 RMK A01 T03111071  RH  008%=      5-min Rain = 0
KGU1 201945Z 21021G31KT 31/M07 A3006 RMK A01 T03101074  RH  008%=      5-min Rain = 0
KGU1 201946Z 22014KT 31/M07 A3006 RMK A01 T03091070  RH  008%=      5-min Rain = 0
KGU1 201947Z 23012G19KT 31/M07 A3006 RMK A01 T03101067  RH  008%=      5-min Rain = 0
KGU1 201948Z 22018G25KT 31/M07 A3006 RMK A01 T03121067  RH  008%=      5-min Rain = 0
KGU1 201949Z 23014KT 31/M07 A3006 RMK A01 T03121067  RH  008%=      5-min Rain = 0
KGU1 201950Z 20018KT 31/M07 A3006 RMK A01 T03131067  RH  008%=      5-min Rain = 0
KGU1 201951Z 21015G21KT 31/M07 A3006 RMK A01 T03141065  RH  008%=      5-min Rain = 0
KGU1 201952Z 24021G28KT 32/M07 A3005 RMK A01 T03151067  RH  008%=      5-min Rain = 0
KGU1 201953Z 25023G29KT 31/M07 A3006 RMK A01 T03101071  RH  008%=      5-min Rain = 0
KGU1 201954Z 25016G23KT 31/M07 A3006 RMK A01 T03081073  RH  008%=      5-min Rain = 0
KGU1 201955Z 25015KT 31/M07 A3006 RMK A01 T03061069  RH  008%=      5-min Rain = 0
KGU1 201956Z 23012G18KT 31/M07 A3006 RMK A01 T03091065  RH  008%=      5-min Rain = 0
KGU1 201957Z 23013G21KT 31/M07 A3006 RMK A01 T03101069  RH  008%=      5-min Rain = 0
KGU1 201958Z 22014KT 31/M07 A3006 RMK A01 T03081066  RH  008%=      5-min Rain = 0
KGU1 201959Z 23022G34KT 31/M07 A3005 RMK A01 T03091066  RH  008%=      5-min Rain = 0
KGU1 202000Z 24017KT 31/M07 A3006 RMK A01 T03101068  RH  008%=      5-min Rain = 0
KGU1 202001Z 27017G23KT 31/M07 A3006 RMK A01 T03111067  RH  008%=      5-min Rain = 0
KGU1 202002Z 24017KT 31/M07 A3006 RMK A01 T03091069  RH  008%=      5-min Rain = 0
KGU1 202003Z 24015KT 31/M07 A3006 RMK A01 T03061070  RH  008%=      5-min Rain = 0
KGU1 202004Z 23021G33KT 31/M06 A3005 RMK A01 T03081064  RH  009%=      5-min Rain = 0
KGU1 202005Z 23018G28KT 31/M07 A3006 RMK A01 T03081073  RH  008%=      5-min Rain = 0
KGU1 202006Z 24016G25KT 31/M07 A3006 RMK A01 T03071066  RH  008%=      5-min Rain = 0
KGU1 202007Z 23018G24KT 31/M07 A3006 RMK A01 T03091067  RH  008%=      5-min Rain = 0
KGU1 202008Z 24011G16KT 31/M07 A3006 RMK A01 T03091065  RH  008%=      5-min Rain = 0
KGU1 202009Z 26011KT 31/M06 A3006 RMK A01 T03111062  RH  009%=      5-min Rain = 0
KGU1 202010Z 25011KT 31/M06 A3006 RMK A01 T03121064  RH  008%=      5-min Rain = 0
KGU1 202011Z 23016KT 31/M07 A3006 RMK A01 T03111066  RH  008%=      5-min Rain = 0
KGU1 202012Z 24016G25KT 31/M07 A3005 RMK A01 T03091068  RH  008%=      5-min Rain = 0
KGU1 202013Z 24022G27KT 31/M07 A3005 RMK A01 T03101067  RH  008%=      5-min Rain = 0
KGU1 202014Z 26017G24KT 31/M07 A3006 RMK A01 T03111069  RH  008%=      5-min Rain = 0
KGU1 202015Z 24019G26KT 31/M07 A3006 RMK A01 T03111069  RH  008%=      5-min Rain = 0
KGU1 202016Z 23016G22KT 31/M07 A3006 RMK A01 T03101071  RH  008%=      5-min Rain = 0
KGU1 202017Z 23017G25KT 31/M07 A3006 RMK A01 T03131066  RH  008%=      5-min Rain = 0
KGU1 202018Z 22015G21KT 31/M07 A3005 RMK A01 T03121070  RH  008%=      5-min Rain = 0
KGU1 202019Z 23018G24KT 31/M07 A3005 RMK A01 T03121067  RH  008%=      5-min Rain = 0
KGU1 202020Z 22022G30KT 31/M07 A3005 RMK A01 T03121068  RH  008%=      5-min Rain = 0
KGU1 202021Z 22017KT 31/M07 A3005 RMK A01 T03101067  RH  008%=      5-min Rain = 0
KGU1 202022Z 24018KT 31/M07 A3005 RMK A01 T03121066  RH  008%=      5-min Rain = 0
KGU1 202023Z 25015KT 31/M07 A3005 RMK A01 T03111069  RH  008%=      5-min Rain = 0
KGU1 202024Z 25014KT 31/M07 A3005 RMK A01 T03111068  RH  008%=      5-min Rain = 0
KGU1 202025Z 25012G17KT 31/M06 A3006 RMK A01 T03111064  RH  008%=      5-min Rain = 0
KGU1 202026Z 24011KT 31/M06 A3005 RMK A01 T03121064  RH  008%=      5-min Rain = 0
KGU1 202027Z 24018G27KT 31/M07 A3005 RMK A01 T03131065  RH  008%=      5-min Rain = 0
KGU1 202028Z 23022G28KT 31/M07 A3004 RMK A01 T03141067  RH  008%=      5-min Rain = 0
KGU1 202029Z 26020G28KT 31/M07 A3005 RMK A01 T03141067  RH  008%=      5-min Rain = 0
KGU1 202030Z 26016KT 31/M07 A3005 RMK A01 T03131067  RH  008%=      5-min Rain = 0
KGU1 202031Z 25018KT 31/M07 A3005 RMK A01 T03111067  RH  008%=      5-min Rain = 0
KGU1 202032Z 24021KT 31/M07 A3005 RMK A01 T03101070  RH  008%=      5-min Rain = 0
KGU1 202033Z 24016G21KT 31/M07 A3005 RMK A01 T03091068  RH  008%=      5-min Rain = 0
KGU1 202034Z 24017G25KT 31/M07 A3004 RMK A01 T03101068  RH  008%=      5-min Rain = 0
KGU1 202035Z 25023G31KT 31/M07 A3004 RMK A01 T03101070  RH  008%=      5-min Rain = 0
KGU1 202036Z 24024G34KT 31/M07 A3004 RMK A01 T03101069  RH  008%=      5-min Rain = 0
KGU1 202037Z 23016G26KT 31/M07 A3005 RMK A01 T03101066  RH  008%=      5-min Rain = 0
KGU1 202038Z 23019G26KT 31/M07 A3005 RMK A01 T03091069  RH  008%=      5-min Rain = 0
KGU1 202039Z 22023G31KT 31/M06 A3005 RMK A01 T03091064  RH  008%=      5-min Rain = 0
KGU1 202040Z 24021G28KT 31/M07 A3005 RMK A01 T03091066  RH  008%=      5-min Rain = 0
KGU1 202041Z 26016G27KT 31/M07 A3005 RMK A01 T03061068  RH  008%=      5-min Rain = 0
KGU1 202042Z 25017G25KT 31/M07 A3005 RMK A01 T03061066  RH  009%=      5-min Rain = 0
KGU1 202043Z 24015KT 31/M06 A3005 RMK A01 T03081062  RH  009%=      5-min Rain = 0
KGU1 202044Z 27015KT 31/M06 A3005 RMK A01 T03091062  RH  009%=      5-min Rain = 0
KGU1 202045Z 26019G29KT 31/M07 A3005 RMK A01 T03091065  RH  008%=      5-min Rain = 0
KGU1 202046Z 24017G22KT 31/M07 A3005 RMK A01 T03051065  RH  009%=      5-min Rain = 0
KGU1 202047Z 21013KT 31/M06 A3005 RMK A01 T03061061  RH  009%=      5-min Rain = 0
KGU1 202048Z 22015KT 31/M06 A3005 RMK A01 T03071062  RH  009%=      5-min Rain = 0
KGU1 202049Z 23011KT 31/M06 A3005 RMK A01 T03071059  RH  009%=      5-min Rain = 0
KGU1 202050Z 22013G18KT 31/M05 A3005 RMK A01 T03121054  RH  009%=      5-min Rain = 0
KGU1 202051Z 22017G24KT 32/M06 A3005 RMK A01 T03151056  RH  009%=      5-min Rain = 0
KGU1 202052Z 22019G24KT 31/M06 A3004 RMK A01 T03141061  RH  008%=      5-min Rain = 0
KGU1 202053Z 22021G26KT 31/M06 A3004 RMK A01 T03111063  RH  008%=      5-min Rain = 0
KGU1 202054Z 25024G38KT 31/M06 A3005 RMK A01 T03111063  RH  008%=      5-min Rain = 0
KGU1 202055Z 27020G27KT 31/M07 A3005 RMK A01 T03071067  RH  008%=      5-min Rain = 0
KGU1 202056Z 25019G26KT 31/M06 A3005 RMK A01 T03081063  RH  009%=      5-min Rain = 0
KGU1 202057Z 24017KT 31/M07 A3005 RMK A01 T03081065  RH  008%=      5-min Rain = 0
KGU1 202058Z 23010G15KT 31/M06 A3005 RMK A01 T03061062  RH  009%=      5-min Rain = 0
KGU1 202059Z 24019G33KT 31/M06 A3005 RMK A01 T03081061  RH  009%=      5-min Rain = 0
KGU1 202100Z 22015G23KT 31/M06 A3005 RMK A01 T03071064  RH  009%=      5-min Rain = 0
KGU1 202101Z 23022G30KT 31/M06 A3004 RMK A01 T03061062  RH  009%=      5-min Rain = 0
KGU1 202102Z 23016G23KT 31/M06 A3005 RMK A01 T03061062  RH  009%=      5-min Rain = 0
KGU1 202103Z 24021KT 31/M06 A3005 RMK A01 T03081061  RH  009%=      5-min Rain = 0
KGU1 202104Z 26015G27KT 31/M07 A3005 RMK A01 T03061066  RH  009%=      5-min Rain = 0
KGU1 202105Z 23017KT 30/M07 A3004 RMK A01 T03041065  RH  009%=      5-min Rain = 0
KGU1 202106Z 26014KT 31/M06 A3004 RMK A01 T03051061  RH  009%=      5-min Rain = 0
KGU1 202107Z 26015G22KT 31/M06 A3004 RMK A01 T03081060  RH  009%=      5-min Rain = 0
KGU1 202108Z 24013G22KT 31/M06 A3004 RMK A01 T03091060  RH  009%=      5-min Rain = 0
KGU1 202109Z 21015G20KT 31/M06 A3004 RMK A01 T03121057  RH  009%=      5-min Rain = 0
KGU1 202110Z 20022G30KT 31/M06 A3003 RMK A01 T03121062  RH  009%=      5-min Rain = 0
KGU1 202111Z 21023G28KT 31/M06 A3003 RMK A01 T03111063  RH  008%=      5-min Rain = 0
KGU1 202112Z 21020G25KT 31/M06 A3003 RMK A01 T03101062  RH  009%=      5-min Rain = 0
KGU1 202113Z 22018G24KT 31/M06 A3003 RMK A01 T03101061  RH  009%=      5-min Rain = 0
KGU1 202114Z 23020G31KT 31/M06 A3003 RMK A01 T03091061  RH  009%=      5-min Rain = 0
KGU1 202115Z 24024G29KT 31/M06 A3003 RMK A01 T03101060  RH  009%=      5-min Rain = 0
KGU1 202116Z 25017G25KT 31/M06 A3004 RMK A01 T03101061  RH  009%=      5-min Rain = 0
KGU1 202117Z 24020G27KT 31/M06 A3004 RMK A01 T03131059  RH  009%=      5-min Rain = 0
KGU1 202118Z 23014KT 31/M06 A3004 RMK A01 T03101063  RH  008%=      5-min Rain = 0
KGU1 202119Z 22015G20KT 31/M06 A3003 RMK A01 T03101061  RH  009%=      5-min Rain = 0
KGU1 202120Z 23016G26KT 31/M06 A3003 RMK A01 T03131057  RH  009%=      5-min Rain = 0
KGU1 202121Z 23015G24KT 31/M06 A3004 RMK A01 T03141062  RH  008%=      5-min Rain = 0
KGU1 202122Z 24014G25KT 31/M06 A3004 RMK A01 T03121063  RH  008%=      5-min Rain = 0
KGU1 202123Z 24015G22KT 31/M06 A3003 RMK A01 T03111059  RH  009%=      5-min Rain = 0
KGU1 202124Z 24021G32KT 31/M06 A3003 RMK A01 T03111064  RH  008%=      5-min Rain = 0
KGU1 202125Z 24025G34KT 31/M06 A3003 RMK A01 T03111064  RH  008%=      5-min Rain = 0
KGU1 202126Z 26023G32KT 31/M07 A3004 RMK A01 T03091067  RH  008%=      5-min Rain = 0
KGU1 202127Z 25018G28KT 31/M07 A3004 RMK A01 T03081066  RH  008%=      5-min Rain = 0
KGU1 202128Z 25015G20KT 31/M06 A3004 RMK A01 T03101064  RH  008%=      5-min Rain = 0
KGU1 202129Z 24015G22KT 31/M06 A3003 RMK A01 T03111063  RH  008%=      5-min Rain = 0
KGU1 202130Z 25016G21KT 31/M06 A3003 RMK A01 T03111064  RH  008%=      5-min Rain = 0
KGU1 202131Z 25022G28KT 31/M06 A3003 RMK A01 T03111064  RH  008%=      5-min Rain = 0
KGU1 202132Z 24019KT 31/M07 A3003 RMK A01 T03111066  RH  008%=      5-min Rain = 0
KGU1 202133Z 23016KT 31/M06 A3003 RMK A01 T03111061  RH  009%=      5-min Rain = 0
KGU1 202134Z 22017G26KT 31/M06 A3003 RMK A01 T03121063  RH  008%=      5-min Rain = 0
KGU1 202135Z 23017G24KT 31/M07 A3003 RMK A01 T03111068  RH  008%=      5-min Rain = 0
KGU1 202136Z 24025G34KT 31/M07 A3003 RMK A01 T03121068  RH  008%=      5-min Rain = 0
KGU1 202137Z 24026G32KT 31/M08 A3003 RMK A01 T03091077  RH  008%=      5-min Rain = 0
KGU1 202138Z 25016G25KT 31/M08 A3003 RMK A01 T03061077  RH  008%=      5-min Rain = 0
KGU1 202139Z 24021G28KT 31/M07 A3003 RMK A01 T03071073  RH  008%=      5-min Rain = 0
KGU1 202140Z 23023G32KT 31/M07 A3003 RMK A01 T03091072  RH  008%=      5-min Rain = 0
KGU1 202141Z 23020G27KT 31/M07 A3003 RMK A01 T03081074  RH  008%=      5-min Rain = 0
KGU1 202142Z 24018G23KT 31/M07 A3003 RMK A01 T03081071  RH  008%=      5-min Rain = 0
KGU1 202143Z 22018KT 31/M07 A3003 RMK A01 T03091067  RH  008%=      5-min Rain = 0
KGU1 202144Z 23020G31KT 31/M07 A3003 RMK A01 T03091070  RH  008%=      5-min Rain = 0
KGU1 202145Z 22023G32KT 31/M07 A3002 RMK A01 T03091071  RH  008%=      5-min Rain = 0
KGU1 202146Z 24031G40KT 31/M08 A3002 RMK A01 T03081078  RH  008%=      5-min Rain = 0
KGU1 202147Z 25015G26KT 30/M08 A3003 RMK A01 T03041084  RH  008%=      5-min Rain = 0
KGU1 202148Z 25014G20KT 30/M08 A3003 RMK A01 T03041076  RH  008%=      5-min Rain = 0
KGU1 202149Z 25016G22KT 31/M07 A3003 RMK A01 T03071074  RH  008%=      5-min Rain = 0
KGU1 202150Z 23016G21KT 31/M07 A3003 RMK A01 T03091070  RH  008%=      5-min Rain = 0
KGU1 202151Z 23018G26KT 31/M07 A3003 RMK A01 T03091066  RH  008%=      5-min Rain = 0
KGU1 202152Z 25021G30KT 31/M07 A3003 RMK A01 T03101070  RH  008%=      5-min Rain = 0
KGU1 202153Z 25020KT 31/M07 A3003 RMK A01 T03101071  RH  008%=      5-min Rain = 0
KGU1 202154Z 25016G21KT 31/M07 A3003 RMK A01 T03091069  RH  008%=      5-min Rain = 0
KGU1 202155Z 23018G30KT 31/M07 A3003 RMK A01 T03081072  RH  008%=      5-min Rain = 0
KGU1 202156Z 24018G39KT 31/M07 A3003 RMK A01 T03071069  RH  008%=      5-min Rain = 0
KGU1 202157Z 23015G25KT 31/M07 A3003 RMK A01 T03061074  RH  008%=      5-min Rain = 0
KGU1 202158Z 23018G24KT 31/M07 A3003 RMK A01 T03061070  RH  008%=      5-min Rain = 0
KGU1 202159Z 24018G25KT 31/M08 A3003 RMK A01 T03081075  RH  008%=      5-min Rain = 0
KGU1 202200Z 25015KT 31/M07 A3003 RMK A01 T03061072  RH  008%=      5-min Rain = 0
KGU1 202201Z 23016G31KT 31/M07 A3003 RMK A01 T03071071  RH  008%=      5-min Rain = 0
KGU1 202202Z 24019G24KT 31/M08 A3003 RMK A01 T03061077  RH  008%=      5-min Rain = 0
KGU1 202203Z 23016G28KT 31/M07 A3002 RMK A01 T03051073  RH  008%=      5-min Rain = 0
KGU1 202204Z 24022G29KT 31/M07 A3002 RMK A01 T03061072  RH  008%=      5-min Rain = 0
KGU1 202205Z 25021G27KT 31/M07 A3003 RMK A01 T03061071  RH  008%=      5-min Rain = 0
KGU1 202206Z 25012G21KT 30/M07 A3003 RMK A01 T03041073  RH  008%=      5-min Rain = 0
KGU1 202207Z 24012G20KT 30/M07 A3003 RMK A01 T03031073  RH  008%=      5-min Rain = 0
KGU1 202208Z 25018G24KT 31/M07 A3003 RMK A01 T03051067  RH  008%=      5-min Rain = 0
KGU1 202209Z 25014G24KT 31/M07 A3003 RMK A01 T03071071  RH  008%=      5-min Rain = 0
KGU1 202210Z 24017G24KT 31/M07 A3002 RMK A01 T03071069  RH  008%=      5-min Rain = 0
KGU1 202211Z 24017G23KT 31/M07 A3002 RMK A01 T03071072  RH  008%=      5-min Rain = 0
KGU1 202212Z 23022G30KT 31/M07 A3002 RMK A01 T03071072  RH  008%=      5-min Rain = 0
KGU1 202213Z 25025G34KT 31/M08 A3002 RMK A01 T03071076  RH  008%=      5-min Rain = 0
KGU1 202214Z 25018G29KT 31/M08 A3003 RMK A01 T03071077  RH  008%=      5-min Rain = 0
KGU1 202215Z 25014G22KT 31/M07 A3003 RMK A01 T03061074  RH  008%=      5-min Rain = 0
KGU1 202216Z 27016G24KT 31/M07 A3003 RMK A01 T03091071  RH  008%=      5-min Rain = 0
KGU1 202217Z 26016KT 31/M07 A3003 RMK A01 T03121067  RH  008%=      5-min Rain = 0
KGU1 202218Z 27015G25KT 31/M08 A3003 RMK A01 T03101079  RH  008%=      5-min Rain = 0
KGU1 202219Z 23017G25KT 31/M07 A3002 RMK A01 T03071074  RH  008%=      5-min Rain = 0
KGU1 202220Z 22020G37KT 31/M07 A3002 RMK A01 T03071073  RH  008%=      5-min Rain = 0
KGU1 202221Z 25028G34KT 31/M07 A3001 RMK A01 T03071074  RH  008%=      5-min Rain = 0
KGU1 202222Z 25018G31KT 31/M08 A3003 RMK A01 T03061078  RH  008%=      5-min Rain = 0
KGU1 202223Z 22014KT 30/M08 A3002 RMK A01 T03031075  RH  008%=      5-min Rain = 0
KGU1 202224Z 25010KT 30/M08 A3002 RMK A01 T03031076  RH  008%=      5-min Rain = 0
KGU1 202225Z 24014G19KT 30/M07 A3003 RMK A01 T03041071  RH  008%=      5-min Rain = 0
KGU1 202226Z 23013G18KT 31/M07 A3003 RMK A01 T03061070  RH  008%=      5-min Rain = 0
KGU1 202227Z 21015G23KT 31/M07 A3002 RMK A01 T03081070  RH  008%=      5-min Rain = 0
KGU1 202228Z 22018G24KT 31/M07 A3002 RMK A01 T03081072  RH  008%=      5-min Rain = 0
KGU1 202229Z 21022G30KT 31/M07 A3001 RMK A01 T03081070  RH  008%=      5-min Rain = 0
KGU1 202230Z 25018G29KT 31/M07 A3002 RMK A01 T03081073  RH  008%=      5-min Rain = 0
KGU1 202231Z 23024G32KT 31/M08 A3002 RMK A01 T03071075  RH  008%=      5-min Rain = 0
KGU1 202232Z 25017G24KT 31/M07 A3002 RMK A01 T03051073  RH  008%=      5-min Rain = 0
KGU1 202233Z 24017G24KT 31/M08 A3002 RMK A01 T03051076  RH  008%=      5-min Rain = 0
KGU1 202234Z 24009KT 30/M07 A3002 RMK A01 T03041074  RH  008%=      5-min Rain = 0
KGU1 202235Z 21019G27KT 31/M07 A3001 RMK A01 T03051071  RH  008%=      5-min Rain = 0
KGU1 202236Z 24016G22KT 31/M07 A3002 RMK A01 T03071074  RH  008%=      5-min Rain = 0
KGU1 202237Z 24021G32KT 31/M07 A3002 RMK A01 T03071074  RH  008%=      5-min Rain = 0
KGU1 202238Z 25018KT 31/M08 A3002 RMK A01 T03061076  RH  008%=      5-min Rain = 0
KGU1 202239Z 24016KT 31/M08 A3003 RMK A01 T03061075  RH  008%=      5-min Rain = 0
KGU1 202240Z 22018KT 31/M08 A3002 RMK A01 T03061077  RH  008%=      5-min Rain = 0
KGU1 202241Z 23017G30KT 31/M07 A3002 RMK A01 T03061074  RH  008%=      5-min Rain = 0
KGU1 202242Z 25016G26KT 31/M08 A3002 RMK A01 T03061077  RH  008%=      5-min Rain = 0
KGU1 202243Z 26017G22KT 31/M07 A3002 RMK A01 T03081070  RH  008%=      5-min Rain = 0
KGU1 202244Z 27014G20KT 31/M07 A3002 RMK A01 T03101070  RH  008%=      5-min Rain = 0
KGU1 202245Z 24013G19KT 31/M07 A3002 RMK A01 T03101070  RH  008%=      5-min Rain = 0
KGU1 202246Z 23015G21KT 31/M07 A3002 RMK A01 T03111069  RH  008%=      5-min Rain = 0
KGU1 202247Z 23019G26KT 31/M07 A3002 RMK A01 T03101070  RH  008%=      5-min Rain = 0
KGU1 202248Z 23018G25KT 31/M07 A3001 RMK A01 T03081072  RH  008%=      5-min Rain = 0
KGU1 202249Z 22025G32KT 31/M07 A3001 RMK A01 T03071072  RH  008%=      5-min Rain = 0
KGU1 202250Z 24021G29KT 31/M07 A3002 RMK A01 T03061073  RH  008%=      5-min Rain = 0
KGU1 202251Z 25018KT 31/M07 A3002 RMK A01 T03071073  RH  008%=      5-min Rain = 0
KGU1 202252Z 24019G25KT 31/M07 A3002 RMK A01 T03071073  RH  008%=      5-min Rain = 0
KGU1 202253Z 23016G21KT 31/M07 A3002 RMK A01 T03071073  RH  008%=      5-min Rain = 0
KGU1 202254Z 24018KT 31/M07 A3002 RMK A01 T03071074  RH  008%=      5-min Rain = 0
KGU1 202255Z 23017KT 31/M07 A3001 RMK A01 T03071074  RH  008%=      5-min Rain = 0
KGU1 202256Z 21018KT 31/M07 A3001 RMK A01 T03071074  RH  008%=      5-min Rain = 0
KGU1 202257Z 21019G26KT 31/M08 A3001 RMK A01 T03081075  RH  008%=      5-min Rain = 0
KGU1 202258Z 22017G26KT 31/M07 A3001 RMK A01 T03071074  RH  008%=      5-min Rain = 0
KGU1 202259Z 23019G24KT 31/M08 A3001 RMK A01 T03071076  RH  008%=      5-min Rain = 0
KGU1 202300Z 23016G22KT 31/M07 A3001 RMK A01 T03061073  RH  008%=      5-min Rain = 0
KGU1 202301Z 24018KT 31/M07 A3002 RMK A01 T03081073  RH  008%=      5-min Rain = 0
KGU1 202302Z 23015G21KT 31/M08 A3001 RMK A01 T03071075  RH  008%=      5-min Rain = 0
KGU1 202303Z 21020G26KT 31/M08 A3001 RMK A01 T03061075  RH  008%=      5-min Rain = 0
KGU1 202304Z 23017G22KT 31/M07 A3001 RMK A01 T03061074  RH  008%=      5-min Rain = 0
KGU1 202305Z 23016G21KT 31/M07 A3001 RMK A01 T03071071  RH  008%=      5-min Rain = 0
KGU1 202306Z 24014G20KT 31/M07 A3002 RMK A01 T03071073  RH  008%=      5-min Rain = 0
KGU1 202307Z 26012KT 31/M07 A3002 RMK A01 T03071072  RH  008%=      5-min Rain = 0
KGU1 202308Z 25008KT 31/M07 A3001 RMK A01 T03081072  RH  008%=      5-min Rain = 0
KGU1 202309Z 25012G20KT 31/M07 A3001 RMK A01 T03081067  RH  008%=      5-min Rain = 0
KGU1 202310Z 22021KT 31/M07 A3001 RMK A01 T03091070  RH  008%=      5-min Rain = 0
KGU1 202311Z 25018G23KT 31/M08 A3001 RMK A01 T03071075  RH  008%=      5-min Rain = 0
KGU1 202312Z 24017KT 31/M07 A3001 RMK A01 T03071074  RH  008%=      5-min Rain = 0
KGU1 202313Z 25014G26KT 31/M07 A3002 RMK A01 T03071072  RH  008%=      5-min Rain = 0
KGU1 202314Z 23020G27KT 31/M07 A3001 RMK A01 T03071072  RH  008%=      5-min Rain = 0
KGU1 202315Z 24012G18KT 31/M08 A3001 RMK A01 T03061076  RH  008%=      5-min Rain = 0
KGU1 202316Z 25016G22KT 31/M07 A3001 RMK A01 T03051074  RH  008%=      5-min Rain = 0
KGU1 202317Z 25011G16KT 31/M07 A3002 RMK A01 T03071070  RH  008%=      5-min Rain = 0
KGU1 202318Z 24014G20KT 31/M07 A3002 RMK A01 T03091072  RH  008%=      5-min Rain = 0
KGU1 202319Z 23006G16KT 31/M08 A3002 RMK A01 T03071078  RH  008%=      5-min Rain = 0
KGU1 202320Z 25013G25KT 31/M08 A3001 RMK A01 T03051077  RH  008%=      5-min Rain = 0
KGU1 202321Z 23017G23KT 30/M08 A3001 RMK A01 T03031078  RH  008%=      5-min Rain = 0
KGU1 202322Z 22016G24KT 30/M07 A3001 RMK A01 T03041074  RH  008%=      5-min Rain = 0
KGU1 202323Z 23021G29KT 30/M08 A3001 RMK A01 T03041077  RH  008%=      5-min Rain = 0
KGU1 202324Z 23015G20KT 30/M08 A3002 RMK A01 T03041078  RH  008%=      5-min Rain = 0
KGU1 202325Z 25014G20KT 30/M08 A3001 RMK A01 T03021080  RH  008%=      5-min Rain = 0
KGU1 202326Z 24013G19KT 30/M08 A3001 RMK A01 T03031077  RH  008%=      5-min Rain = 0
KGU1 202327Z 24015G22KT 30/M07 A3001 RMK A01 T03041074  RH  008%=      5-min Rain = 0
KGU1 202328Z 24009KT 31/M07 A3001 RMK A01 T03051074  RH  008%=      5-min Rain = 0
KGU1 202329Z 24014G19KT 31/M07 A3001 RMK A01 T03071071  RH  008%=      5-min Rain = 0
KGU1 202330Z 23015G21KT 31/M08 A3001 RMK A01 T03071075  RH  008%=      5-min Rain = 0
KGU1 202331Z 24018KT 31/M08 A3001 RMK A01 T03061076  RH  008%=      5-min Rain = 0
KGU1 202332Z 23015G22KT 31/M08 A3001 RMK A01 T03051078  RH  008%=      5-min Rain = 0
KGU1 202333Z 22014KT 30/M08 A3001 RMK A01 T03031077  RH  008%=      5-min Rain = 0
KGU1 202334Z 22012KT 30/M07 A3001 RMK A01 T03031074  RH  008%=      5-min Rain = 0
KGU1 202335Z 22011KT 30/M07 A3001 RMK A01 T03041072  RH  008%=      5-min Rain = 0
KGU1 202336Z 21016G22KT 30/M07 A30 RMK A01 T03041073  RH  008%=      5-min Rain = 0
KGU1 202337Z 21021G28KT 31/M08 A30 RMK A01 T03051075  RH  008%=      5-min Rain = 0
KGU1 202338Z 21022KT 30/M08 A30 RMK A01 T03041078  RH  008%=      5-min Rain = 0
KGU1 202339Z 22014KT 30/M08 A3001 RMK A01 T03041078  RH  008%=      5-min Rain = 0
KGU1 202340Z 24012G18KT 30/M08 A3001 RMK A01 T03031075  RH  008%=      5-min Rain = 0
KGU1 202341Z 25015KT 30/M08 A3001 RMK A01 T03041076  RH  008%=      5-min Rain = 0
KGU1 202342Z 23010KT 30/M07 A3001 RMK A01 T03041071  RH  008%=      5-min Rain = 0
KGU1 202343Z 25009KT 31/M07 A3001 RMK A01 T03051072  RH  008%=      5-min Rain = 0
KGU1 202344Z 24016G25KT 31/M08 A3001 RMK A01 T03051075  RH  008%=      5-min Rain = 0
KGU1 202345Z 23017KT 30/M08 A3001 RMK A01 T03041076  RH  008%=      5-min Rain = 0
KGU1 202346Z 24015KT 30/M08 A3001 RMK A01 T03031076  RH  008%=      5-min Rain = 0
KGU1 202347Z 23014G19KT 30/M07 A3001 RMK A01 T03031073  RH  008%=      5-min Rain = 0
KGU1 202348Z 22012G18KT 30/M07 A3001 RMK A01 T03031070  RH  008%=      5-min Rain = 0
KGU1 202349Z 22016G22KT 30/M07 A30 RMK A01 T03021073  RH  008%=      5-min Rain = 0
KGU1 202350Z 22016G24KT 30/M07 A30 RMK A01 T03031072  RH  008%=      5-min Rain = 0
KGU1 202351Z 22019KT 30/M07 A30 RMK A01 T03021074  RH  008%=      5-min Rain = 0
KGU1 202352Z 24016G24KT 30/M07 A30 RMK A01 T03021074  RH  008%=      5-min Rain = 0
KGU1 202353Z 24016G22KT 30/M08 A30 RMK A01 T03021077  RH  008%=      5-min Rain = 0
KGU1 202354Z 22014G20KT 30/M08 A30 RMK A01 T03011076  RH  008%=      5-min Rain = 0
KGU1 202355Z 23017KT 30/M07 A30 RMK A01 T03021074  RH  008%=      5-min Rain = 0
KGU1 202356Z 21015G20KT 30/M08 A30 RMK A01 T03031075  RH  008%=      5-min Rain = 0
KGU1 202357Z 21014G20KT 30/M07 A30 RMK A01 T03031074  RH  008%=      5-min Rain = 0
KGU1 202358Z 23015KT 30/M07 A30 RMK A01 T03031074  RH  008%=      5-min Rain = 0
KGU1 202359Z 23016G24KT 30/M07 A3001 RMK A01 T03041072  RH  008%=      5-min Rain = 0
KGU1 210000Z 24012KT 31/M08 A3001 RMK A01 T03051075  RH  008%=      5-min Rain = 0
KGU1 210001Z 25010KT 30/M08 A3001 RMK A01 T03041075  RH  008%=      5-min Rain = 0
KGU1 210002Z 22011KT 30/M07 A3001 RMK A01 T03031073  RH  008%=      5-min Rain = 0
KGU1 210003Z 22008G13KT 30/M07 A30 RMK A01 T03031071  RH  008%=      5-min Rain = 0
KGU1 210004Z 24018G25KT 30/M07 A30 RMK A01 T03041073  RH  008%=      5-min Rain = 0
KGU1 210005Z 24021G27KT 30/M08 A30 RMK A01 T03031077  RH  008%=      5-min Rain = 0
KGU1 210006Z 23016G22KT 30/M08 A30 RMK A01 T03021077  RH  008%=      5-min Rain = 0
KGU1 210007Z 24016G24KT 30/M08 A3001 RMK A01 T03021078  RH  008%=      5-min Rain = 0
KGU1 210008Z 25009G16KT 30/M08 A3001 RMK A01 T03021079  RH  008%=      5-min Rain = 0
KGU1 210009Z 22006KT 30/M08 A30 RMK A01 T03021076  RH  008%=      5-min Rain = 0
KGU1 210010Z 27010G16KT 30/M08 A30 RMK A01 T03031075  RH  008%=      5-min Rain = 0
KGU1 210011Z 25015G20KT 30/M07 A3001 RMK A01 T03031072  RH  008%=      5-min Rain = 0
KGU1 210012Z 24013G21KT 30/M08 A3001 RMK A01 T03031076  RH  008%=      5-min Rain = 0
KGU1 210013Z 24010KT 30/M08 A3001 RMK A01 T03031075  RH  008%=      5-min Rain = 0
KGU1 210014Z 24011KT 30/M08 A3001 RMK A01 T03021077  RH  008%=      5-min Rain = 0
KGU1 210015Z 25008G14KT 30/M08 A3001 RMK A01 T03011076  RH  008%=      5-min Rain = 0
KGU1 210016Z 22009G18KT 30/M07 A30 RMK A01 T03021071  RH  008%=      5-min Rain = 0
KGU1 210017Z 23015G21KT 30/M07 A30 RMK A01 T03021074  RH  008%=      5-min Rain = 0
KGU1 210018Z 21017G26KT 30/M08 A30 RMK A01 T03011076  RH  008%=      5-min Rain = 0
KGU1 210019Z 21014G20KT 30/M08 A30 RMK A01 T03001077  RH  008%=      5-min Rain = 0
KGU1 210020Z 22012KT 30/M07 A30 RMK A01 T03001074  RH  008%=      5-min Rain = 0
KGU1 210021Z 22010G16KT 30/M07 A30 RMK A01 T03001073  RH  008%=      5-min Rain = 0
KGU1 210022Z 22020G28KT 30/M08 A30 RMK A01 T03001075  RH  008%=      5-min Rain = 0
KGU1 210023Z 22015G20KT 30/M08 A3001 RMK A01 T03001077  RH  008%=      5-min Rain = 0
KGU1 210024Z 21013G22KT 30/M08 A3001 RMK A01 T02991078  RH  008%=      5-min Rain = 0
KGU1 210025Z 22008KT 30/M08 A30 RMK A01 T02991077  RH  008%=      5-min Rain = 0
KGU1 210026Z 21009G20KT 30/M07 A30 RMK A01 T03001074  RH  008%=      5-min Rain = 0
KGU1 210027Z 22014G21KT 30/M08 A30 RMK A01 T03001078  RH  008%=      5-min Rain = 0
KGU1 210028Z 22018G25KT 30/M08 A30 RMK A01 T03001080  RH  008%=      5-min Rain = 0
KGU1 210029Z 23018G33KT 30/M08 A30 RMK A01 T02991082  RH  008%=      5-min Rain = 0
KGU1 210030Z 24016G24KT 30/M08 A30 RMK A01 T02991080  RH  008%=      5-min Rain = 0
KGU1 210031Z 25017G23KT 30/M08 A30 RMK A01 T03001075  RH  008%=      5-min Rain = 0
KGU1 210032Z 23009G17KT 30/M08 A3001 RMK A01 T03001081  RH  008%=      5-min Rain = 0
KGU1 210033Z 24010G19KT 30/M08 A30 RMK A01 T02991080  RH  008%=      5-min Rain = 0
KGU1 210034Z 23010KT 30/M08 A30 RMK A01 T03001079  RH  008%=      5-min Rain = 0
KGU1 210035Z 26018G23KT 30/M08 A30 RMK A01 T03001080  RH  008%=      5-min Rain = 0
KGU1 210036Z 24010KT 30/M08 A3001 RMK A01 T02991080  RH  008%=      5-min Rain = 0
KGU1 210037Z 23007KT 30/M08 A3001 RMK A01 T02991077  RH  008%=      5-min Rain = 0
KGU1 210038Z 23012G20KT 30/M08 A30 RMK A01 T02991079  RH  008%=      5-min Rain = 0
KGU1 210039Z 22008G13KT 30/M08 A30 RMK A01 T02991078  RH  008%=      5-min Rain = 0
KGU1 210040Z 23009G16KT 30/M07 A30 RMK A01 T02991073  RH  008%=      5-min Rain = 0
KGU1 210041Z 25017KT 30/M08 A30 RMK A01 T02991076  RH  008%=      5-min Rain = 0
KGU1 210042Z 25012KT 30/M08 A3001 RMK A01 T03001076  RH  008%=      5-min Rain = 0
KGU1 210043Z 25012KT 30/M08 A3001 RMK A01 T03001077  RH  008%=      5-min Rain = 0
KGU1 210044Z 26006G11KT 30/M07 A3001 RMK A01 T03001074  RH  008%=      5-min Rain = 0
KGU1 210045Z 22009KT 30/M08 A3001 RMK A01 T03001078  RH  008%=      5-min Rain = 0
KGU1 210046Z 20005G11KT 30/M08 A3001 RMK A01 T02991081  RH  008%=      5-min Rain = 0
KGU1 210047Z 25012G19KT 30/M08 A3001 RMK A01 T02991077  RH  008%=      5-min Rain = 0
KGU1 210048Z 22012G21KT 30/M08 A3001 RMK A01 T02981081  RH  008%=      5-min Rain = 0
KGU1 210049Z 22009G14KT 30/M08 A30 RMK A01 T02971082  RH  008%=      5-min Rain = 0
KGU1 210050Z 22016G23KT 30/M08 A30 RMK A01 T02971078  RH  008%=      5-min Rain = 0
KGU1 210051Z 22012KT 30/M08 A30 RMK A01 T02971081  RH  008%=      5-min Rain = 0
KGU1 210052Z 22013G20KT 30/M08 A30 RMK A01 T02961079  RH  008%=      5-min Rain = 0
KGU1 210053Z 23021G26KT 30/M08 A30 RMK A01 T02961080  RH  008%=      5-min Rain = 0
KGU1 210054Z 24021G26KT 30/M08 A30 RMK A01 T02961082  RH  008%=      5-min Rain = 0
KGU1 210055Z 25015KT 30/M08 A3001 RMK A01 T02961082  RH  008%=      5-min Rain = 0
KGU1 210056Z 28008G16KT 30/M08 A3001 RMK A01 T02951083  RH  008%=      5-min Rain = 0
KGU1 210057Z 28006KT 30/M08 A3001 RMK A01 T02961082  RH  008%=      5-min Rain = 0
KGU1 210058Z 26005KT 30/M08 A3001 RMK A01 T02971079  RH  008%=      5-min Rain = 0
KGU1 210059Z 28008KT 30/M08 A30 RMK A01 T02971077  RH  008%=      5-min Rain = 0
KGU1 210100Z 21012G19KT 30/M08 A30 RMK A01 T02971076  RH  008%=      5-min Rain = 0
KGU1 210101Z 25022G29KT 30/M08 A30 RMK A01 T02961078  RH  008%=      5-min Rain = 0
KGU1 210102Z 26015G22KT 30/M08 A3001 RMK A01 T02961079  RH  008%=      5-min Rain = 0
KGU1 210103Z 29007G14KT 30/M08 A3001 RMK A01 T02961078  RH  008%=      5-min Rain = 0
KGU1 210104Z 31006KT 30/M08 A3001 RMK A01 T02961079  RH  008%=      5-min Rain = 0
KGU1 210105Z 28009KT 30/M08 A3001 RMK A01 T02961078  RH  008%=      5-min Rain = 0
KGU1 210106Z 30010KT 30/M08 A3001 RMK A01 T02961075  RH  008%=      5-min Rain = 0
KGU1 210107Z 27007KT 30/M08 A3001 RMK A01 T02951077  RH  008%=      5-min Rain = 0
KGU1 210108Z 26011KT 30/M08 A3001 RMK A01 T02951079  RH  008%=      5-min Rain = 0
KGU1 210109Z 24010KT 30/M08 A3001 RMK A01 T02951077  RH  008%=      5-min Rain = 0
KGU1 210110Z 22009KT 29/M08 A3001 RMK A01 T02941076  RH  008%=      5-min Rain = 0
KGU1 210111Z 23011G16KT 29/M08 A3001 RMK A01 T02931077  RH  008%=      5-min Rain = 0
KGU1 210112Z 22015G21KT 29/M08 A3001 RMK A01 T02921079  RH  008%=      5-min Rain = 0
KGU1 210113Z 21018G26KT 29/M08 A3001 RMK A01 T02921079  RH  008%=      5-min Rain = 0
KGU1 210114Z 21012KT 29/M08 A3001 RMK A01 T02921080  RH  008%=      5-min Rain = 0
KGU1 210115Z 20014G19KT 29/M08 A3001 RMK A01 T02921079  RH  008%=      5-min Rain = 0
KGU1 210116Z 21013KT 29/M08 A3001 RMK A01 T02921080  RH  008%=      5-min Rain = 0
KGU1 210117Z 20010KT 29/M08 A3001 RMK A01 T02931080  RH  008%=      5-min Rain = 0
KGU1 210118Z 24014KT 29/M08 A30 RMK A01 T02921080  RH  008%=      5-min Rain = 0
KGU1 210119Z 27016KT 29/M08 A3001 RMK A01 T02921075  RH  009%=      5-min Rain = 0
KGU1 210120Z 26014KT 29/M08 A3001 RMK A01 T02901076  RH  009%=      5-min Rain = 0
KGU1 210121Z 23009KT 29/M08 A3002 RMK A01 T02911079  RH  008%=      5-min Rain = 0
KGU1 210122Z 25011KT 29/M08 A3001 RMK A01 T02911082  RH  008%=      5-min Rain = 0
KGU1 210123Z 25008G13KT 29/M08 A3001 RMK A01 T02911083  RH  008%=      5-min Rain = 0
KGU1 210124Z 26007KT 29/M08 A3001 RMK A01 T02921082  RH  008%=      5-min Rain = 0
KGU1 210125Z 29007KT 29/M08 A3001 RMK A01 T02921082  RH  008%=      5-min Rain = 0
KGU1 210126Z 30006KT 29/M08 A3001 RMK A01 T02911083  RH  008%=      5-min Rain = 0
KGU1 210127Z 24010G17KT 29/M08 A3001 RMK A01 T02911084  RH  008%=      5-min Rain = 0
KGU1 210128Z 22013KT 29/M08 A3001 RMK A01 T02891084  RH  008%=      5-min Rain = 0
KGU1 210129Z 23013KT 29/M09 A3001 RMK A01 T02881086  RH  008%=      5-min Rain = 0
KGU1 210130Z 24012KT 29/M09 A3001 RMK A01 T02881087  RH  008%=      5-min Rain = 0
KGU1 210131Z 25013KT 29/M09 A3001 RMK A01 T02881087  RH  008%=      5-min Rain = 0
KGU1 210132Z 22014G19KT 29/M09 A3001 RMK A01 T02881087  RH  008%=      5-min Rain = 0
KGU1 210133Z 23011G16KT 29/M09 A3001 RMK A01 T02881086  RH  008%=      5-min Rain = 0
KGU1 210134Z 23012G19KT 29/M08 A3001 RMK A01 T02871084  RH  008%=      5-min Rain = 0
KGU1 210135Z 25016G21KT 29/M09 A3001 RMK A01 T02871088  RH  008%=      5-min Rain = 0
KGU1 210136Z 22012KT 29/M09 A3001 RMK A01 T02881086  RH  008%=      5-min Rain = 0
KGU1 210137Z 21010KT 29/M09 A3001 RMK A01 T02871086  RH  008%=      5-min Rain = 0
KGU1 210138Z 22018KT 29/M09 A3001 RMK A01 T02861087  RH  008%=      5-min Rain = 0
KGU1 210139Z 24011G17KT 29/M09 A3001 RMK A01 T02881089  RH  008%=      5-min Rain = 0
KGU1 210140Z 32004G12KT 29/M09 A3001 RMK A01 T02891089  RH  008%=      5-min Rain = 0
KGU1 210141Z 18003G8KT 29/M09 A3001 RMK A01 T02881086  RH  008%=      5-min Rain = 0
KGU1 210142Z 23016G23KT 29/M09 A3001 RMK A01 T02871087  RH  008%=      5-min Rain = 0
KGU1 210143Z 21014G20KT 29/M09 A3001 RMK A01 T02871088  RH  008%=      5-min Rain = 0
KGU1 210144Z 24010KT 29/M09 A3001 RMK A01 T02881089  RH  008%=      5-min Rain = 0
KGU1 210145Z 27009KT 29/M09 A3001 RMK A01 T02881088  RH  008%=      5-min Rain = 0
KGU1 210146Z 23007G15KT 29/M09 A3001 RMK A01 T02871088  RH  008%=      5-min Rain = 0
KGU1 210147Z 22014KT 29/M09 A3001 RMK A01 T02871087  RH  008%=      5-min Rain = 0
KGU1 210148Z 23013KT 29/M09 A3001 RMK A01 T02871088  RH  008%=      5-min Rain = 0
KGU1 210149Z 25011KT 29/M09 A3001 RMK A01 T02871088  RH  008%=      5-min Rain = 0
KGU1 210150Z 24010KT 29/M09 A3001 RMK A01 T02871087  RH  008%=      5-min Rain = 0
KGU1 210151Z 22008KT 29/M09 A3002 RMK A01 T02871087  RH  008%=      5-min Rain = 0
KGU1 210152Z 23007KT 29/M09 A3002 RMK A01 T02861087  RH  008%=      5-min Rain = 0
KGU1 210153Z 23006KT 29/M09 A3002 RMK A01 T02861087  RH  008%=      5-min Rain = 0
KGU1 210154Z 27006KT 29/M09 A3002 RMK A01 T02851085  RH  008%=      5-min Rain = 0
KGU1 210155Z 23013G19KT 28/M09 A3002 RMK A01 T02831086  RH  008%=      5-min Rain = 0
KGU1 210156Z 22012G18KT 28/M09 A3001 RMK A01 T02841087  RH  008%=      5-min Rain = 0
KGU1 210157Z 21017G23KT 28/M09 A3001 RMK A01 T02841088  RH  008%=      5-min Rain = 0
KGU1 210158Z 20010KT 29/M09 A3002 RMK A01 T02871089  RH  008%=      5-min Rain = 0
KGU1 210159Z 21006KT 29/M09 A3002 RMK A01 T02871088  RH  008%=      5-min Rain = 0
KGU1 210200Z 25006KT 29/M09 A3002 RMK A01 T02881087  RH  008%=      5-min Rain = 0
KGU1 210201Z 24008G15KT 29/M09 A3002 RMK A01 T02871087  RH  008%=      5-min Rain = 0
KGU1 210202Z 21018KT 29/M09 A3001 RMK A01 T02861087  RH  008%=      5-min Rain = 0
KGU1 210203Z 20019G24KT 29/M09 A3001 RMK A01 T02861088  RH  008%=      5-min Rain = 0
KGU1 210204Z 22010G16KT 29/M09 A3002 RMK A01 T02871088  RH  008%=      5-min Rain = 0
KGU1 210205Z 14001KT 29/M09 A3002 RMK A01 T02871089  RH  008%=      5-min Rain = 0
KGU1 210206Z 24005KT 29/M09 A3002 RMK A01 T02881089  RH  008%=      5-min Rain = 0
KGU1 210207Z 21005KT 29/M09 A3002 RMK A01 T02871089  RH  008%=      5-min Rain = 0
KGU1 210208Z 24005KT 29/M09 A3002 RMK A01 T02871087  RH  008%=      5-min Rain = 0
KGU1 210209Z 19004KT 29/M09 A3002 RMK A01 T02861086  RH  008%=      5-min Rain = 0
KGU1 210210Z 20004KT 28/M09 A3002 RMK A01 T02841085  RH  008%=      5-min Rain = 0
KGU1 210211Z 23005KT 28/M09 A3002 RMK A01 T02821087  RH  008%=      5-min Rain = 0
KGU1 210212Z 23008KT 28/M09 A3002 RMK A01 T02821086  RH  008%=      5-min Rain = 0
KGU1 210213Z 21011G17KT 28/M09 A3002 RMK A01 T02811087  RH  008%=      5-min Rain = 0
KGU1 210214Z 24007KT 28/M09 A3002 RMK A01 T02821088  RH  008%=      5-min Rain = 0
KGU1 210215Z 25007KT 28/M09 A3002 RMK A01 T02841088  RH  008%=      5-min Rain = 0
KGU1 210216Z 25005KT 28/M09 A3002 RMK A01 T02841087  RH  008%=      5-min Rain = 0
KGU1 210217Z 27005KT 28/M09 A3002 RMK A01 T02831086  RH  008%=      5-min Rain = 0
KGU1 210218Z 28001KT 28/M09 A3002 RMK A01 T02831088  RH  008%=      5-min Rain = 0
KGU1 210219Z 02001KT 28/M09 A3002 RMK A01 T02831087  RH  008%=      5-min Rain = 0
KGU1 210220Z 33001KT 28/M09 A3002 RMK A01 T02821086  RH  008%=      5-min Rain = 0
KGU1 210221Z 00000KT 28/M09 A3002 RMK A01 T02811088  RH  008%=      5-min Rain = 0
KGU1 210222Z 20002KT 28/M09 A3002 RMK A01 T02811088  RH  008%=      5-min Rain = 0
KGU1 210223Z 20002KT 28/M09 A3002 RMK A01 T02811089  RH  008%=      5-min Rain = 0
KGU1 210224Z 23000KT 28/M09 A3002 RMK A01 T02831091  RH  008%=      5-min Rain = 0
KGU1 210225Z 22002KT 28/M09 A3002 RMK A01 T02841090  RH  008%=      5-min Rain = 0
KGU1 210226Z 19003KT 28/M09 A3002 RMK A01 T02821085  RH  008%=      5-min Rain = 0
KGU1 210227Z 19003KT 28/M08 A3002 RMK A01 T02791084  RH  009%=      5-min Rain = 0
KGU1 210228Z 21004KT 28/M08 A3002 RMK A01 T02761083  RH  009%=      5-min Rain = 0
KGU1 210229Z 26003KT 27/M09 A3002 RMK A01 T02741087  RH  009%=      5-min Rain = 0
KGU1 210230Z 27002KT 27/M09 A3002 RMK A01 T02741088  RH  009%=      5-min Rain = 0
KGU1 210231Z 26002KT 28/M09 A3002 RMK A01 T02761089  RH  008%=      5-min Rain = 0
KGU1 210232Z 17001KT 28/M08 A3002 RMK A01 T02761083  RH  009%=      5-min Rain = 0
KGU1 210233Z 00000KT 27/M09 A3002 RMK A01 T02741086  RH  009%=      5-min Rain = 0
KGU1 210234Z 00000KT 27/M09 A3002 RMK A01 T02741089  RH  009%=      5-min Rain = 0
KGU1 210235Z 21000KT 27/M09 A3002 RMK A01 T02741087  RH  009%=      5-min Rain = 0
KGU1 210236Z 24007KT 28/M09 A3002 RMK A01 T02751087  RH  009%=      5-min Rain = 0
KGU1 210237Z 25006KT 28/M09 A3002 RMK A01 T02751086  RH  009%=      5-min Rain = 0
KGU1 210238Z 28005KT 28/M09 A3002 RMK A01 T02761086  RH  009%=      5-min Rain = 0
KGU1 210239Z 24002KT 28/M09 A3002 RMK A01 T02751085  RH  009%=      5-min Rain = 0
KGU1 210240Z 23000KT 27/M08 A3002 RMK A01 T02741084  RH  009%=      5-min Rain = 0
KGU1 210241Z 18003KT 27/M09 A3002 RMK A01 T02731086  RH  009%=      5-min Rain = 0
KGU1 210242Z 20006G11KT 27/M09 A3002 RMK A01 T02731085  RH  009%=      5-min Rain = 0
KGU1 210243Z 15004KT 28/M09 A3002 RMK A01 T02751086  RH  009%=      5-min Rain = 0
KGU1 210244Z 22003KT 28/M09 A3002 RMK A01 T02761086  RH  009%=      5-min Rain = 0
KGU1 210245Z 21005KT 28/M09 A3002 RMK A01 T02761086  RH  009%=      5-min Rain = 0
KGU1 210246Z 23005KT 28/M09 A3002 RMK A01 T02761085  RH  009%=      5-min Rain = 0
KGU1 210247Z 23006KT 28/M09 A3002 RMK A01 T02781086  RH  009%=      5-min Rain = 0
KGU1 210248Z 25005KT 28/M08 A3002 RMK A01 T02771084  RH  009%=      5-min Rain = 0
KGU1 210249Z 24004KT 28/M08 A3002 RMK A01 T02751083  RH  009%=      5-min Rain = 0
KGU1 210250Z 21006KT 27/M08 A3002 RMK A01 T02731083  RH  009%=      5-min Rain = 0
KGU1 210251Z 22006KT 27/M08 A3002 RMK A01 T02741083  RH  009%=      5-min Rain = 0
KGU1 210252Z 22005KT 27/M09 A3002 RMK A01 T02741085  RH  009%=      5-min Rain = 0
KGU1 210253Z 24006KT 28/M08 A3002 RMK A01 T02751083  RH  009%=      5-min Rain = 0
KGU1 210254Z 22004KT 27/M08 A3002 RMK A01 T02741082  RH  009%=      5-min Rain = 0
KGU1 210255Z 20006KT 27/M08 A3002 RMK A01 T02741084  RH  009%=      5-min Rain = 0
KGU1 210256Z 23003KT 28/M09 A3002 RMK A01 T02751085  RH  009%=      5-min Rain = 0
KGU1 210257Z 33005KT 28/M09 A3002 RMK A01 T02781087  RH  009%=      5-min Rain = 0
KGU1 210258Z 30003KT 28/M09 A3002 RMK A01 T02811086  RH  008%=      5-min Rain = 0
KGU1 210259Z 30003KT 28/M08 A3002 RMK A01 T02821084  RH  008%=      5-min Rain = 0
KGU1 210300Z 29001KT 28/M08 A3002 RMK A01 T02801079  RH  009%=      5-min Rain = 0
KGU1 210301Z 29000KT 28/M08 A3002 RMK A01 T02771079  RH  009%=      5-min Rain = 0
KGU1 210302Z 29000KT 28/M08 A3002 RMK A01 T02751083  RH  009%=      5-min Rain = 0
KGU1 210303Z 29000KT 27/M08 A3002 RMK A01 T02741081  RH  009%=      5-min Rain = 0
KGU1 210304Z 27003KT 27/M08 A3002 RMK A01 T02711080  RH  009%=      5-min Rain = 0
KGU1 210305Z 25005KT 27/M08 A3003 RMK A01 T02691080  RH  009%=      5-min Rain = 0
KGU1 210306Z 26004KT 27/M08 A3003 RMK A01 T02691083  RH  009%=      5-min Rain = 0
KGU1 210307Z 28002KT 27/M08 A3003 RMK A01 T02701083  RH  009%=      5-min Rain = 0
KGU1 210308Z 29006KT 27/M08 A3003 RMK A01 T02711079  RH  009%=      5-min Rain = 0
KGU1 210309Z 31005KT 27/M08 A3003 RMK A01 T02721083  RH  009%=      5-min Rain = 0
KGU1 210310Z 34002KT 28/M08 A3003 RMK A01 T02761084  RH  009%=      5-min Rain = 0
KGU1 210311Z 35000KT 28/M08 A3003 RMK A01 T02791083  RH  009%=      5-min Rain = 0
KGU1 210312Z 20003KT 28/M08 A3003 RMK A01 T02791080  RH  009%=      5-min Rain = 0
KGU1 210313Z 21004KT 28/M08 A3003 RMK A01 T02751078  RH  009%=      5-min Rain = 0
KGU1 210314Z 23002KT 27/M08 A3003 RMK A01 T02721081  RH  009%=      5-min Rain = 0
KGU1 210315Z 27002KT 27/M08 A3003 RMK A01 T02731084  RH  009%=      5-min Rain = 0
KGU1 210316Z 34004KT 28/M08 A3003 RMK A01 T02751081  RH  009%=      5-min Rain = 0
KGU1 210317Z 33007G12KT 27/M08 A3003 RMK A01 T02741079  RH  009%=      5-min Rain = 0
KGU1 210318Z 32007KT 27/M08 A3003 RMK A01 T02741081  RH  009%=      5-min Rain = 0
KGU1 210319Z 32007KT 28/M08 A3003 RMK A01 T02761080  RH  009%=      5-min Rain = 0
KGU1 210320Z 33006KT 28/M08 A3003 RMK A01 T02781081  RH  009%=      5-min Rain = 0
KGU1 210321Z 31007KT 28/M08 A3003 RMK A01 T02781080  RH  009%=      5-min Rain = 0
KGU1 210322Z 28004KT 28/M08 A3003 RMK A01 T02781080  RH  009%=      5-min Rain = 0
KGU1 210323Z 30004KT 28/M08 A3003 RMK A01 T02781078  RH  009%=      5-min Rain = 0
KGU1 210324Z 31006KT 28/M08 A3003 RMK A01 T02761077  RH  009%=      5-min Rain = 0
KGU1 210325Z 30009KT 27/M08 A3003 RMK A01 T02741078  RH  009%=      5-min Rain = 0
KGU1 210326Z 28006KT 27/M08 A3003 RMK A01 T02741076  RH  009%=      5-min Rain = 0
KGU1 210327Z 28008KT 27/M08 A3003 RMK A01 T02721079  RH  009%=      5-min Rain = 0
KGU1 210328Z 27008KT 28/M08 A3003 RMK A01 T02761081  RH  009%=      5-min Rain = 0
KGU1 210329Z 27007KT 28/M08 A3003 RMK A01 T02781079  RH  009%=      5-min Rain = 0
KGU1 210330Z 25005KT 28/M08 A3003 RMK A01 T02771077  RH  009%=      5-min Rain = 0
KGU1 210331Z 23003KT 28/M08 A3003 RMK A01 T02751077  RH  009%=      5-min Rain = 0
KGU1 210332Z 26005KT 27/M08 A3003 RMK A01 T02721077  RH  009%=      5-min Rain = 0
KGU1 210333Z 28004KT 27/M08 A3003 RMK A01 T02711078  RH  010%=      5-min Rain = 0
KGU1 210334Z 28004KT 27/M08 A3003 RMK A01 T02701078  RH  010%=      5-min Rain = 0
KGU1 210335Z 27007KT 27/M08 A3003 RMK A01 T02701077  RH  010%=      5-min Rain = 0
KGU1 210336Z 29005KT 27/M08 A3003 RMK A01 T02681079  RH  010%=      5-min Rain = 0
KGU1 210337Z 29009KT 27/M08 A3003 RMK A01 T02701081  RH  009%=      5-min Rain = 0
KGU1 210338Z 28007KT 27/M08 A3003 RMK A01 T02731079  RH  009%=      5-min Rain = 0
KGU1 210339Z 26007KT 27/M08 A3003 RMK A01 T02721078  RH  009%=      5-min Rain = 0
KGU1 210340Z 21003KT 27/M08 A3003 RMK A01 T02721080  RH  009%=      5-min Rain = 0
KGU1 210341Z 34004KT 27/M08 A3003 RMK A01 T02731081  RH  009%=      5-min Rain = 0
KGU1 210342Z 34001KT 28/M08 A3003 RMK A01 T02761082  RH  009%=      5-min Rain = 0
KGU1 210343Z 29001KT 28/M08 A3003 RMK A01 T02771082  RH  009%=      5-min Rain = 0
KGU1 210344Z 28004KT 28/M08 A3003 RMK A01 T02771078  RH  009%=      5-min Rain = 0
KGU1 210345Z 29006KT 28/M08 A3004 RMK A01 T02751079  RH  009%=      5-min Rain = 0
KGU1 210346Z 29007KT 27/M08 A3004 RMK A01 T02741079  RH  009%=      5-min Rain = 0
KGU1 210347Z 28006KT 27/M08 A3004 RMK A01 T02731080  RH  009%=      5-min Rain = 0
KGU1 210348Z 29008KT 27/M08 A3003 RMK A01 T02731078  RH  009%=      5-min Rain = 0
KGU1 210349Z 28007KT 27/M08 A3004 RMK A01 T02721080  RH  009%=      5-min Rain = 0
KGU1 210350Z 24005KT 27/M08 A3004 RMK A01 T02731080  RH  009%=      5-min Rain = 0
KGU1 210351Z 22002KT 27/M08 A3004 RMK A01 T02741078  RH  009%=      5-min Rain = 0
KGU1 210352Z 22001KT 27/M08 A3004 RMK A01 T02721080  RH  009%=      5-min Rain = 0
KGU1 210353Z 25002KT 27/M08 A3004 RMK A01 T02721081  RH  009%=      5-min Rain = 0
KGU1 210354Z 31008KT 27/M08 A3004 RMK A01 T02721078  RH  009%=      5-min Rain = 0
KGU1 210355Z 29007KT 27/M08 A3004 RMK A01 T02711079  RH  009%=      5-min Rain = 0
KGU1 210356Z 27005KT 27/M08 A3004 RMK A01 T02731081  RH  009%=      5-min Rain = 0
KGU1 210357Z 27006KT 27/M08 A3004 RMK A01 T02741079  RH  009%=      5-min Rain = 0
KGU1 210358Z 29006KT 27/M08 A3004 RMK A01 T02721078  RH  009%=      5-min Rain = 0
KGU1 210359Z 26005KT 27/M08 A3004 RMK A01 T02731080  RH  009%=      5-min Rain = 0
KGU1 210400Z 19005KT 27/M08 A3004 RMK A01 T02721078  RH  009%=      5-min Rain = 0
KGU1 210401Z 21004KT 27/M08 A3004 RMK A01 T02711080  RH  009%=      5-min Rain = 0
KGU1 210402Z 23003KT 27/M08 A3004 RMK A01 T02731082  RH  009%=      5-min Rain = 0
KGU1 210403Z 21003KT 28/M08 A3004 RMK A01 T02751082  RH  009%=      5-min Rain = 0
KGU1 210404Z 23004KT 28/M08 A3004 RMK A01 T02761080  RH  009%=      5-min Rain = 0
KGU1 210405Z 23007KT 28/M08 A3004 RMK A01 T02751079  RH  009%=      5-min Rain = 0
KGU1 210406Z 20006KT 27/M08 A3004 RMK A01 T02741079  RH  009%=      5-min Rain = 0
KGU1 210407Z 19004KT 28/M08 A3004 RMK A01 T02751079  RH  009%=      5-min Rain = 0
KGU1 210408Z 27006KT 27/M08 A3004 RMK A01 T02731076  RH  010%=      5-min Rain = 0
KGU1 210409Z 26005KT 27/M08 A3004 RMK A01 T02681075  RH  010%=      5-min Rain = 0
KGU1 210410Z 24002KT 27/M08 A3004 RMK A01 T02661082  RH  009%=      5-min Rain = 0
KGU1 210411Z 23004KT 27/M08 A3004 RMK A01 T02681081  RH  009%=      5-min Rain = 0
KGU1 210412Z 26003KT 27/M08 A3004 RMK A01 T02691078  RH  010%=      5-min Rain = 0
KGU1 210413Z 31003KT 27/M08 A3004 RMK A01 T02681080  RH  010%=      5-min Rain = 0
KGU1 210414Z 32002KT 27/M08 A3004 RMK A01 T02681079  RH  010%=      5-min Rain = 0
KGU1 210415Z 32003KT 27/M08 A3004 RMK A01 T02661076  RH  010%=      5-min Rain = 0
KGU1 210416Z 31002KT 26/M08 A3004 RMK A01 T02641079  RH  010%=      5-min Rain = 0
KGU1 210417Z 35002KT 27/M08 A3004 RMK A01 T02651081  RH  010%=      5-min Rain = 0
KGU1 210418Z 33004KT 27/M08 A3004 RMK A01 T02661077  RH  010%=      5-min Rain = 0
KGU1 210419Z 28004KT 26/M07 A3004 RMK A01 T02591072  RH  011%=      5-min Rain = 0
KGU1 210420Z 28004KT 26/M07 A3004 RMK A01 T02581072  RH  011%=      5-min Rain = 0
KGU1 210421Z 25003KT 26/M08 A3004 RMK A01 T02561078  RH  010%=      5-min Rain = 0
KGU1 210422Z 27001KT 26/M08 A3004 RMK A01 T02581081  RH  010%=      5-min Rain = 0
KGU1 210423Z 30004KT 26/M08 A3004 RMK A01 T02601080  RH  010%=      5-min Rain = 0
KGU1 210424Z 31005KT 26/M08 A3004 RMK A01 T02611079  RH  010%=      5-min Rain = 0
KGU1 210425Z 31005KT 26/M08 A3004 RMK A01 T02611076  RH  010%=      5-min Rain = 0
KGU1 210426Z 29004KT 26/M07 A3004 RMK A01 T02571069  RH  011%=      5-min Rain = 0
KGU1 210427Z 28005KT 25/M07 A3004 RMK A01 T02531068  RH  011%=      5-min Rain = 0
KGU1 210428Z 29008KT 25/M07 A3004 RMK A01 T02501070  RH  011%=      5-min Rain = 0
KGU1 210429Z 28008KT 25/M08 A3004 RMK A01 T02531082  RH  010%=      5-min Rain = 0
KGU1 210430Z 24009KT 26/M08 A3004 RMK A01 T02621079  RH  010%=      5-min Rain = 0
KGU1 210431Z 23007KT 27/M08 A3004 RMK A01 T02651083  RH  009%=      5-min Rain = 0
KGU1 210432Z 25005KT 27/M08 A3004 RMK A01 T02701084  RH  009%=      5-min Rain = 0
KGU1 210433Z 26003KT 27/M08 A3004 RMK A01 T02711080  RH  009%=      5-min Rain = 0
KGU1 210434Z 24003KT 27/M08 A3004 RMK A01 T02701080  RH  009%=      5-min Rain = 0
KGU1 210435Z 22003KT 27/M08 A3004 RMK A01 T02691080  RH  009%=      5-min Rain = 0
KGU1 210436Z 23002KT 27/M08 A3004 RMK A01 T02691082  RH  009%=      5-min Rain = 0
KGU1 210437Z 26002KT 27/M08 A3004 RMK A01 T02691080  RH  009%=      5-min Rain = 0
KGU1 210438Z 27003KT 27/M08 A3004 RMK A01 T02691078  RH  010%=      5-min Rain = 0
KGU1 210439Z 29005KT 27/M08 A3004 RMK A01 T02671078  RH  010%=      5-min Rain = 0
KGU1 210440Z 29008KT 26/M08 A3004 RMK A01 T02641076  RH  010%=      5-min Rain = 0
KGU1 210441Z 28006KT 26/M08 A3004 RMK A01 T02611075  RH  010%=      5-min Rain = 0
KGU1 210442Z 27005KT 26/M08 A3004 RMK A01 T02601077  RH  010%=      5-min Rain = 0
KGU1 210443Z 29004KT 26/M08 A3003 RMK A01 T02601080  RH  010%=      5-min Rain = 0
KGU1 210444Z 24004KT 26/M08 A3004 RMK A01 T02611079  RH  010%=      5-min Rain = 0
KGU1 210445Z 23004KT 26/M08 A3004 RMK A01 T02611079  RH  010%=      5-min Rain = 0
KGU1 210446Z 23003KT 26/M08 A3004 RMK A01 T02621080  RH  010%=      5-min Rain = 0
KGU1 210447Z 20003KT 26/M08 A3004 RMK A01 T02621078  RH  010%=      5-min Rain = 0
KGU1 210448Z 18004KT 26/M08 A3004 RMK A01 T02611077  RH  010%=      5-min Rain = 0
KGU1 210449Z 17005KT 26/M08 A3003 RMK A01 T02611080  RH  010%=      5-min Rain = 0
KGU1 210450Z 17003KT 27/M08 A3003 RMK A01 T02661083  RH  009%=      5-min Rain = 0
KGU1 210451Z 25002KT 27/M08 A3004 RMK A01 T02701081  RH  009%=      5-min Rain = 0
KGU1 210452Z 26003KT 27/M08 A3004 RMK A01 T02711079  RH  009%=      5-min Rain = 0
KGU1 210453Z 25003KT 27/M08 A3004 RMK A01 T02701076  RH  010%=      5-min Rain = 0
KGU1 210454Z 24003KT 27/M08 A3004 RMK A01 T02661076  RH  010%=      5-min Rain = 0
KGU1 210455Z 21003KT 26/M08 A3004 RMK A01 T02641077  RH  010%=      5-min Rain = 0
KGU1 210456Z 21005KT 26/M08 A3004 RMK A01 T02621077  RH  010%=      5-min Rain = 0
KGU1 210457Z 22004KT 26/M08 A3004 RMK A01 T02601076  RH  010%=      5-min Rain = 0
KGU1 210458Z 23004KT 26/M08 A3004 RMK A01 T02601079  RH  010%=      5-min Rain = 0
KGU1 210459Z 23006KT 26/M08 A3004 RMK A01 T02611079  RH  010%=      5-min Rain = 0

Page generated in 0.0704 seconds.